<?xml version="1.0" encoding="UTF-8" standalone="no" ?>
<gpx xmlns="http://www.topografix.com/GPX/1/1" xmlns:xsi="http://www.w3.org/2001/XMLSchema-instance" xsi:schemaLocation="http://www.topografix.com/GPX/1/1 http://www.topografix.com/GPX/1/1/gpx.xsd" version="1.1" creator="VisuGPX - https://www.visugpx.com">
  <metadata>
    <name>Marche de cloture saison</name>
    <desc><![CDATA[Les environs Néronde - Bussières]]></desc>
  </metadata>
  <trk>
    <name><![CDATA[20180707103728-Hz3il]]></name>
    <trkseg>
      <trkpt lat="45.84314" lon="4.24837">
        <ele>511</ele>
        <time>2018-07-06T17:17:28Z</time>
      </trkpt>
      <trkpt lat="45.84309" lon="4.24834">
        <ele>513</ele>
        <time>2018-07-06T17:17:33Z</time>
      </trkpt>
      <trkpt lat="45.84308" lon="4.24826">
        <ele>511</ele>
        <time>2018-07-06T17:17:38Z</time>
      </trkpt>
      <trkpt lat="45.84308" lon="4.2482">
        <ele>511</ele>
        <time>2018-07-06T17:17:44Z</time>
      </trkpt>
      <trkpt lat="45.84308" lon="4.2482">
        <ele>511</ele>
        <time>2018-07-06T17:17:49Z</time>
      </trkpt>
      <trkpt lat="45.84305" lon="4.24812">
        <ele>512</ele>
        <time>2018-07-06T17:17:55Z</time>
      </trkpt>
      <trkpt lat="45.84305" lon="4.24803">
        <ele>512</ele>
        <time>2018-07-06T17:18:00Z</time>
      </trkpt>
      <trkpt lat="45.84305" lon="4.24803">
        <ele>512</ele>
        <time>2018-07-06T17:18:06Z</time>
      </trkpt>
      <trkpt lat="45.84306" lon="4.24796">
        <ele>512</ele>
        <time>2018-07-06T17:18:11Z</time>
      </trkpt>
      <trkpt lat="45.84308" lon="4.24787">
        <ele>511</ele>
        <time>2018-07-06T17:18:17Z</time>
      </trkpt>
      <trkpt lat="45.84308" lon="4.24782">
        <ele>511</ele>
        <time>2018-07-06T17:18:23Z</time>
      </trkpt>
      <trkpt lat="45.84308" lon="4.24774">
        <ele>511</ele>
        <time>2018-07-06T17:18:28Z</time>
      </trkpt>
      <trkpt lat="45.84306" lon="4.24768">
        <ele>511</ele>
        <time>2018-07-06T17:18:34Z</time>
      </trkpt>
      <trkpt lat="45.84306" lon="4.24762">
        <ele>510</ele>
        <time>2018-07-06T17:18:39Z</time>
      </trkpt>
      <trkpt lat="45.84307" lon="4.24757">
        <ele>510</ele>
        <time>2018-07-06T17:18:45Z</time>
      </trkpt>
      <trkpt lat="45.8431" lon="4.24751">
        <ele>509</ele>
        <time>2018-07-06T17:18:51Z</time>
      </trkpt>
      <trkpt lat="45.84312" lon="4.24744">
        <ele>506</ele>
        <time>2018-07-06T17:18:57Z</time>
      </trkpt>
      <trkpt lat="45.84315" lon="4.24738">
        <ele>506</ele>
        <time>2018-07-06T17:19:02Z</time>
      </trkpt>
      <trkpt lat="45.84317" lon="4.24735">
        <ele>506</ele>
        <time>2018-07-06T17:19:08Z</time>
      </trkpt>
      <trkpt lat="45.8432" lon="4.24731">
        <ele>506</ele>
        <time>2018-07-06T17:19:13Z</time>
      </trkpt>
      <trkpt lat="45.84322" lon="4.24726">
        <ele>506</ele>
        <time>2018-07-06T17:19:19Z</time>
      </trkpt>
      <trkpt lat="45.84324" lon="4.24724">
        <ele>506</ele>
        <time>2018-07-06T17:19:25Z</time>
      </trkpt>
      <trkpt lat="45.84326" lon="4.2472">
        <ele>506</ele>
        <time>2018-07-06T17:19:30Z</time>
      </trkpt>
      <trkpt lat="45.84329" lon="4.24718">
        <ele>506</ele>
        <time>2018-07-06T17:19:35Z</time>
      </trkpt>
      <trkpt lat="45.8433" lon="4.24712">
        <ele>506</ele>
        <time>2018-07-06T17:19:41Z</time>
      </trkpt>
      <trkpt lat="45.84332" lon="4.24708">
        <ele>506</ele>
        <time>2018-07-06T17:19:46Z</time>
      </trkpt>
      <trkpt lat="45.84331" lon="4.24703">
        <ele>505</ele>
        <time>2018-07-06T17:19:52Z</time>
      </trkpt>
      <trkpt lat="45.84331" lon="4.24697">
        <ele>505</ele>
        <time>2018-07-06T17:19:58Z</time>
      </trkpt>
      <trkpt lat="45.84331" lon="4.24691">
        <ele>505</ele>
        <time>2018-07-06T17:20:04Z</time>
      </trkpt>
      <trkpt lat="45.84332" lon="4.24687">
        <ele>504</ele>
        <time>2018-07-06T17:20:09Z</time>
      </trkpt>
      <trkpt lat="45.8433" lon="4.24682">
        <ele>504</ele>
        <time>2018-07-06T17:20:14Z</time>
      </trkpt>
      <trkpt lat="45.84329" lon="4.24674">
        <ele>503</ele>
        <time>2018-07-06T17:20:20Z</time>
      </trkpt>
      <trkpt lat="45.84327" lon="4.24663">
        <ele>502</ele>
        <time>2018-07-06T17:20:26Z</time>
      </trkpt>
      <trkpt lat="45.84325" lon="4.24656">
        <ele>502</ele>
        <time>2018-07-06T17:20:32Z</time>
      </trkpt>
      <trkpt lat="45.84322" lon="4.24651">
        <ele>502</ele>
        <time>2018-07-06T17:20:38Z</time>
      </trkpt>
      <trkpt lat="45.84317" lon="4.24646">
        <ele>503</ele>
        <time>2018-07-06T17:20:44Z</time>
      </trkpt>
      <trkpt lat="45.84314" lon="4.24636">
        <ele>503</ele>
        <time>2018-07-06T17:20:49Z</time>
      </trkpt>
      <trkpt lat="45.84312" lon="4.24628">
        <ele>503</ele>
        <time>2018-07-06T17:20:55Z</time>
      </trkpt>
      <trkpt lat="45.84312" lon="4.24623">
        <ele>503</ele>
        <time>2018-07-06T17:21:00Z</time>
      </trkpt>
      <trkpt lat="45.84311" lon="4.24615">
        <ele>503</ele>
        <time>2018-07-06T17:21:06Z</time>
      </trkpt>
      <trkpt lat="45.84311" lon="4.24609">
        <ele>502</ele>
        <time>2018-07-06T17:21:11Z</time>
      </trkpt>
      <trkpt lat="45.84306" lon="4.24602">
        <ele>502</ele>
        <time>2018-07-06T17:21:17Z</time>
      </trkpt>
      <trkpt lat="45.84305" lon="4.24597">
        <ele>502</ele>
        <time>2018-07-06T17:21:22Z</time>
      </trkpt>
      <trkpt lat="45.84305" lon="4.24588">
        <ele>502</ele>
        <time>2018-07-06T17:21:28Z</time>
      </trkpt>
      <trkpt lat="45.84307" lon="4.24582">
        <ele>500</ele>
        <time>2018-07-06T17:21:33Z</time>
      </trkpt>
      <trkpt lat="45.84308" lon="4.24573">
        <ele>500</ele>
        <time>2018-07-06T17:21:39Z</time>
      </trkpt>
      <trkpt lat="45.84309" lon="4.24568">
        <ele>500</ele>
        <time>2018-07-06T17:21:45Z</time>
      </trkpt>
      <trkpt lat="45.84308" lon="4.24562">
        <ele>500</ele>
        <time>2018-07-06T17:21:50Z</time>
      </trkpt>
      <trkpt lat="45.84309" lon="4.2455">
        <ele>500</ele>
        <time>2018-07-06T17:21:56Z</time>
      </trkpt>
      <trkpt lat="45.84308" lon="4.24541">
        <ele>500</ele>
        <time>2018-07-06T17:22:01Z</time>
      </trkpt>
      <trkpt lat="45.84309" lon="4.24533">
        <ele>499</ele>
        <time>2018-07-06T17:22:07Z</time>
      </trkpt>
      <trkpt lat="45.8431" lon="4.24526">
        <ele>498</ele>
        <time>2018-07-06T17:22:12Z</time>
      </trkpt>
      <trkpt lat="45.8431" lon="4.24519">
        <ele>498</ele>
        <time>2018-07-06T17:22:18Z</time>
      </trkpt>
      <trkpt lat="45.8431" lon="4.24513">
        <ele>497</ele>
        <time>2018-07-06T17:22:24Z</time>
      </trkpt>
      <trkpt lat="45.84308" lon="4.24504">
        <ele>497</ele>
        <time>2018-07-06T17:22:30Z</time>
      </trkpt>
      <trkpt lat="45.84306" lon="4.2449">
        <ele>494</ele>
        <time>2018-07-06T17:22:36Z</time>
      </trkpt>
      <trkpt lat="45.84303" lon="4.24481">
        <ele>495</ele>
        <time>2018-07-06T17:22:42Z</time>
      </trkpt>
      <trkpt lat="45.84301" lon="4.24475">
        <ele>495</ele>
        <time>2018-07-06T17:22:47Z</time>
      </trkpt>
      <trkpt lat="45.84301" lon="4.24468">
        <ele>495</ele>
        <time>2018-07-06T17:22:53Z</time>
      </trkpt>
      <trkpt lat="45.843" lon="4.24462">
        <ele>495</ele>
        <time>2018-07-06T17:22:58Z</time>
      </trkpt>
      <trkpt lat="45.84299" lon="4.2445">
        <ele>495</ele>
        <time>2018-07-06T17:23:04Z</time>
      </trkpt>
      <trkpt lat="45.84298" lon="4.2444">
        <ele>495</ele>
        <time>2018-07-06T17:23:10Z</time>
      </trkpt>
      <trkpt lat="45.84298" lon="4.24433">
        <ele>494</ele>
        <time>2018-07-06T17:23:16Z</time>
      </trkpt>
      <trkpt lat="45.84299" lon="4.24425">
        <ele>494</ele>
        <time>2018-07-06T17:23:22Z</time>
      </trkpt>
      <trkpt lat="45.84301" lon="4.24415">
        <ele>489</ele>
        <time>2018-07-06T17:23:28Z</time>
      </trkpt>
      <trkpt lat="45.84302" lon="4.24407">
        <ele>489</ele>
        <time>2018-07-06T17:23:33Z</time>
      </trkpt>
      <trkpt lat="45.84303" lon="4.24401">
        <ele>488</ele>
        <time>2018-07-06T17:23:38Z</time>
      </trkpt>
      <trkpt lat="45.84303" lon="4.24393">
        <ele>488</ele>
        <time>2018-07-06T17:23:44Z</time>
      </trkpt>
      <trkpt lat="45.84305" lon="4.24387">
        <ele>488</ele>
        <time>2018-07-06T17:23:49Z</time>
      </trkpt>
      <trkpt lat="45.84307" lon="4.24378">
        <ele>487</ele>
        <time>2018-07-06T17:23:54Z</time>
      </trkpt>
      <trkpt lat="45.84307" lon="4.24369">
        <ele>487</ele>
        <time>2018-07-06T17:24:00Z</time>
      </trkpt>
      <trkpt lat="45.84305" lon="4.24365">
        <ele>487</ele>
        <time>2018-07-06T17:24:05Z</time>
      </trkpt>
      <trkpt lat="45.84302" lon="4.24357">
        <ele>486</ele>
        <time>2018-07-06T17:24:11Z</time>
      </trkpt>
      <trkpt lat="45.84303" lon="4.24349">
        <ele>486</ele>
        <time>2018-07-06T17:24:16Z</time>
      </trkpt>
      <trkpt lat="45.84301" lon="4.24341">
        <ele>486</ele>
        <time>2018-07-06T17:24:22Z</time>
      </trkpt>
      <trkpt lat="45.84299" lon="4.24337">
        <ele>486</ele>
        <time>2018-07-06T17:24:28Z</time>
      </trkpt>
      <trkpt lat="45.84297" lon="4.24331">
        <ele>480</ele>
        <time>2018-07-06T17:24:34Z</time>
      </trkpt>
      <trkpt lat="45.84297" lon="4.24325">
        <ele>480</ele>
        <time>2018-07-06T17:24:40Z</time>
      </trkpt>
      <trkpt lat="45.84297" lon="4.2432">
        <ele>480</ele>
        <time>2018-07-06T17:24:45Z</time>
      </trkpt>
      <trkpt lat="45.84297" lon="4.24311">
        <ele>480</ele>
        <time>2018-07-06T17:24:51Z</time>
      </trkpt>
      <trkpt lat="45.84297" lon="4.24302">
        <ele>480</ele>
        <time>2018-07-06T17:24:56Z</time>
      </trkpt>
      <trkpt lat="45.84296" lon="4.24296">
        <ele>479</ele>
        <time>2018-07-06T17:25:02Z</time>
      </trkpt>
      <trkpt lat="45.84294" lon="4.24292">
        <ele>479</ele>
        <time>2018-07-06T17:25:07Z</time>
      </trkpt>
      <trkpt lat="45.84294" lon="4.24286">
        <ele>479</ele>
        <time>2018-07-06T17:25:13Z</time>
      </trkpt>
      <trkpt lat="45.84293" lon="4.2428">
        <ele>479</ele>
        <time>2018-07-06T17:25:18Z</time>
      </trkpt>
      <trkpt lat="45.84292" lon="4.24271">
        <ele>478</ele>
        <time>2018-07-06T17:25:24Z</time>
      </trkpt>
      <trkpt lat="45.84292" lon="4.24265">
        <ele>478</ele>
        <time>2018-07-06T17:25:29Z</time>
      </trkpt>
      <trkpt lat="45.84293" lon="4.24257">
        <ele>478</ele>
        <time>2018-07-06T17:25:35Z</time>
      </trkpt>
      <trkpt lat="45.84294" lon="4.24256">
        <ele>478</ele>
        <time>2018-07-06T17:25:40Z</time>
      </trkpt>
      <trkpt lat="45.84296" lon="4.24256">
        <ele>478</ele>
        <time>2018-07-06T17:25:46Z</time>
      </trkpt>
      <trkpt lat="45.84296" lon="4.24256">
        <ele>478</ele>
        <time>2018-07-06T17:25:51Z</time>
      </trkpt>
      <trkpt lat="45.84296" lon="4.24255">
        <ele>478</ele>
        <time>2018-07-06T17:25:56Z</time>
      </trkpt>
      <trkpt lat="45.84298" lon="4.24257">
        <ele>478</ele>
        <time>2018-07-06T17:26:02Z</time>
      </trkpt>
      <trkpt lat="45.84302" lon="4.24263">
        <ele>478</ele>
        <time>2018-07-06T17:26:07Z</time>
      </trkpt>
      <trkpt lat="45.84306" lon="4.24265">
        <ele>478</ele>
        <time>2018-07-06T17:26:12Z</time>
      </trkpt>
      <trkpt lat="45.8431" lon="4.24268">
        <ele>478</ele>
        <time>2018-07-06T17:26:18Z</time>
      </trkpt>
      <trkpt lat="45.84312" lon="4.2427">
        <ele>477</ele>
        <time>2018-07-06T17:26:24Z</time>
      </trkpt>
      <trkpt lat="45.84317" lon="4.24271">
        <ele>477</ele>
        <time>2018-07-06T17:26:29Z</time>
      </trkpt>
      <trkpt lat="45.84323" lon="4.24271">
        <ele>477</ele>
        <time>2018-07-06T17:26:35Z</time>
      </trkpt>
      <trkpt lat="45.84329" lon="4.24274">
        <ele>477</ele>
        <time>2018-07-06T17:26:41Z</time>
      </trkpt>
      <trkpt lat="45.84335" lon="4.24276">
        <ele>478</ele>
        <time>2018-07-06T17:26:47Z</time>
      </trkpt>
      <trkpt lat="45.84338" lon="4.24275">
        <ele>478</ele>
        <time>2018-07-06T17:26:52Z</time>
      </trkpt>
      <trkpt lat="45.84341" lon="4.24273">
        <ele>478</ele>
        <time>2018-07-06T17:26:58Z</time>
      </trkpt>
      <trkpt lat="45.84344" lon="4.24274">
        <ele>479</ele>
        <time>2018-07-06T17:27:03Z</time>
      </trkpt>
      <trkpt lat="45.84351" lon="4.24274">
        <ele>479</ele>
        <time>2018-07-06T17:27:09Z</time>
      </trkpt>
      <trkpt lat="45.84354" lon="4.24275">
        <ele>479</ele>
        <time>2018-07-06T17:27:15Z</time>
      </trkpt>
      <trkpt lat="45.8436" lon="4.24276">
        <ele>480</ele>
        <time>2018-07-06T17:27:20Z</time>
      </trkpt>
      <trkpt lat="45.84365" lon="4.24278">
        <ele>480</ele>
        <time>2018-07-06T17:27:26Z</time>
      </trkpt>
      <trkpt lat="45.84369" lon="4.24278">
        <ele>481</ele>
        <time>2018-07-06T17:27:31Z</time>
      </trkpt>
      <trkpt lat="45.84372" lon="4.24277">
        <ele>481</ele>
        <time>2018-07-06T17:27:37Z</time>
      </trkpt>
      <trkpt lat="45.84375" lon="4.24276">
        <ele>481</ele>
        <time>2018-07-06T17:27:42Z</time>
      </trkpt>
      <trkpt lat="45.84379" lon="4.24276">
        <ele>482</ele>
        <time>2018-07-06T17:27:47Z</time>
      </trkpt>
      <trkpt lat="45.84382" lon="4.24276">
        <ele>482</ele>
        <time>2018-07-06T17:27:53Z</time>
      </trkpt>
      <trkpt lat="45.84389" lon="4.24278">
        <ele>482</ele>
        <time>2018-07-06T17:27:58Z</time>
      </trkpt>
      <trkpt lat="45.84396" lon="4.2428">
        <ele>483</ele>
        <time>2018-07-06T17:28:04Z</time>
      </trkpt>
      <trkpt lat="45.84403" lon="4.24279">
        <ele>483</ele>
        <time>2018-07-06T17:28:10Z</time>
      </trkpt>
      <trkpt lat="45.84406" lon="4.24279">
        <ele>484</ele>
        <time>2018-07-06T17:28:15Z</time>
      </trkpt>
      <trkpt lat="45.84411" lon="4.24277">
        <ele>484</ele>
        <time>2018-07-06T17:28:20Z</time>
      </trkpt>
      <trkpt lat="45.84413" lon="4.24277">
        <ele>484</ele>
        <time>2018-07-06T17:28:26Z</time>
      </trkpt>
      <trkpt lat="45.84417" lon="4.24277">
        <ele>484</ele>
        <time>2018-07-06T17:28:31Z</time>
      </trkpt>
      <trkpt lat="45.8442" lon="4.24278">
        <ele>492</ele>
        <time>2018-07-06T17:28:36Z</time>
      </trkpt>
      <trkpt lat="45.84425" lon="4.2428">
        <ele>492</ele>
        <time>2018-07-06T17:28:42Z</time>
      </trkpt>
      <trkpt lat="45.84429" lon="4.2428">
        <ele>492</ele>
        <time>2018-07-06T17:28:48Z</time>
      </trkpt>
      <trkpt lat="45.84432" lon="4.24279">
        <ele>493</ele>
        <time>2018-07-06T17:28:53Z</time>
      </trkpt>
      <trkpt lat="45.84436" lon="4.24278">
        <ele>493</ele>
        <time>2018-07-06T17:28:59Z</time>
      </trkpt>
      <trkpt lat="45.84439" lon="4.24276">
        <ele>493</ele>
        <time>2018-07-06T17:29:04Z</time>
      </trkpt>
      <trkpt lat="45.84442" lon="4.24275">
        <ele>493</ele>
        <time>2018-07-06T17:29:10Z</time>
      </trkpt>
      <trkpt lat="45.84444" lon="4.24276">
        <ele>493</ele>
        <time>2018-07-06T17:29:15Z</time>
      </trkpt>
      <trkpt lat="45.84446" lon="4.24276">
        <ele>494</ele>
        <time>2018-07-06T17:29:20Z</time>
      </trkpt>
      <trkpt lat="45.8445" lon="4.24277">
        <ele>494</ele>
        <time>2018-07-06T17:29:26Z</time>
      </trkpt>
      <trkpt lat="45.84454" lon="4.24277">
        <ele>494</ele>
        <time>2018-07-06T17:29:31Z</time>
      </trkpt>
      <trkpt lat="45.84458" lon="4.24279">
        <ele>495</ele>
        <time>2018-07-06T17:29:37Z</time>
      </trkpt>
      <trkpt lat="45.84462" lon="4.24281">
        <ele>495</ele>
        <time>2018-07-06T17:29:42Z</time>
      </trkpt>
      <trkpt lat="45.84468" lon="4.24283">
        <ele>496</ele>
        <time>2018-07-06T17:29:48Z</time>
      </trkpt>
      <trkpt lat="45.84472" lon="4.24285">
        <ele>496</ele>
        <time>2018-07-06T17:29:53Z</time>
      </trkpt>
      <trkpt lat="45.84478" lon="4.24284">
        <ele>496</ele>
        <time>2018-07-06T17:29:59Z</time>
      </trkpt>
      <trkpt lat="45.8448" lon="4.24284">
        <ele>497</ele>
        <time>2018-07-06T17:30:04Z</time>
      </trkpt>
      <trkpt lat="45.84484" lon="4.24285">
        <ele>497</ele>
        <time>2018-07-06T17:30:10Z</time>
      </trkpt>
      <trkpt lat="45.84488" lon="4.2429">
        <ele>497</ele>
        <time>2018-07-06T17:30:16Z</time>
      </trkpt>
      <trkpt lat="45.84491" lon="4.2429">
        <ele>497</ele>
        <time>2018-07-06T17:30:21Z</time>
      </trkpt>
      <trkpt lat="45.84495" lon="4.24291">
        <ele>497</ele>
        <time>2018-07-06T17:30:26Z</time>
      </trkpt>
      <trkpt lat="45.84501" lon="4.24294">
        <ele>508</ele>
        <time>2018-07-06T17:30:32Z</time>
      </trkpt>
      <trkpt lat="45.84503" lon="4.24301">
        <ele>507</ele>
        <time>2018-07-06T17:30:37Z</time>
      </trkpt>
      <trkpt lat="45.84506" lon="4.24306">
        <ele>507</ele>
        <time>2018-07-06T17:30:43Z</time>
      </trkpt>
      <trkpt lat="45.8451" lon="4.24309">
        <ele>507</ele>
        <time>2018-07-06T17:30:49Z</time>
      </trkpt>
      <trkpt lat="45.84514" lon="4.24312">
        <ele>507</ele>
        <time>2018-07-06T17:30:54Z</time>
      </trkpt>
      <trkpt lat="45.84517" lon="4.24314">
        <ele>507</ele>
        <time>2018-07-06T17:31:00Z</time>
      </trkpt>
      <trkpt lat="45.84523" lon="4.24315">
        <ele>508</ele>
        <time>2018-07-06T17:31:05Z</time>
      </trkpt>
      <trkpt lat="45.84526" lon="4.24318">
        <ele>508</ele>
        <time>2018-07-06T17:31:11Z</time>
      </trkpt>
      <trkpt lat="45.84531" lon="4.24326">
        <ele>509</ele>
        <time>2018-07-06T17:31:17Z</time>
      </trkpt>
      <trkpt lat="45.84534" lon="4.24331">
        <ele>509</ele>
        <time>2018-07-06T17:31:22Z</time>
      </trkpt>
      <trkpt lat="45.84536" lon="4.24335">
        <ele>509</ele>
        <time>2018-07-06T17:31:28Z</time>
      </trkpt>
      <trkpt lat="45.84537" lon="4.24336">
        <ele>509</ele>
        <time>2018-07-06T17:31:33Z</time>
      </trkpt>
      <trkpt lat="45.84539" lon="4.24344">
        <ele>510</ele>
        <time>2018-07-06T17:31:39Z</time>
      </trkpt>
      <trkpt lat="45.8454" lon="4.2435">
        <ele>510</ele>
        <time>2018-07-06T17:31:45Z</time>
      </trkpt>
      <trkpt lat="45.84542" lon="4.24357">
        <ele>511</ele>
        <time>2018-07-06T17:31:50Z</time>
      </trkpt>
      <trkpt lat="45.84545" lon="4.24359">
        <ele>511</ele>
        <time>2018-07-06T17:31:56Z</time>
      </trkpt>
      <trkpt lat="45.84547" lon="4.2436">
        <ele>511</ele>
        <time>2018-07-06T17:32:01Z</time>
      </trkpt>
      <trkpt lat="45.8455" lon="4.24362">
        <ele>511</ele>
        <time>2018-07-06T17:32:07Z</time>
      </trkpt>
      <trkpt lat="45.84551" lon="4.24365">
        <ele>512</ele>
        <time>2018-07-06T17:32:13Z</time>
      </trkpt>
      <trkpt lat="45.84553" lon="4.24373">
        <ele>512</ele>
        <time>2018-07-06T17:32:19Z</time>
      </trkpt>
      <trkpt lat="45.84556" lon="4.24376">
        <ele>512</ele>
        <time>2018-07-06T17:32:24Z</time>
      </trkpt>
      <trkpt lat="45.8456" lon="4.2438">
        <ele>512</ele>
        <time>2018-07-06T17:32:30Z</time>
      </trkpt>
      <trkpt lat="45.84565" lon="4.24386">
        <ele>513</ele>
        <time>2018-07-06T17:32:36Z</time>
      </trkpt>
      <trkpt lat="45.84569" lon="4.24391">
        <ele>513</ele>
        <time>2018-07-06T17:32:41Z</time>
      </trkpt>
      <trkpt lat="45.84572" lon="4.24394">
        <ele>513</ele>
        <time>2018-07-06T17:32:46Z</time>
      </trkpt>
      <trkpt lat="45.84577" lon="4.24396">
        <ele>513</ele>
        <time>2018-07-06T17:32:52Z</time>
      </trkpt>
      <trkpt lat="45.84581" lon="4.24404">
        <ele>513</ele>
        <time>2018-07-06T17:32:58Z</time>
      </trkpt>
      <trkpt lat="45.84585" lon="4.24415">
        <ele>515</ele>
        <time>2018-07-06T17:33:04Z</time>
      </trkpt>
      <trkpt lat="45.84585" lon="4.24418">
        <ele>515</ele>
        <time>2018-07-06T17:33:09Z</time>
      </trkpt>
      <trkpt lat="45.84586" lon="4.24424">
        <ele>516</ele>
        <time>2018-07-06T17:33:15Z</time>
      </trkpt>
      <trkpt lat="45.84588" lon="4.24427">
        <ele>516</ele>
        <time>2018-07-06T17:33:21Z</time>
      </trkpt>
      <trkpt lat="45.8459" lon="4.24432">
        <ele>517</ele>
        <time>2018-07-06T17:33:27Z</time>
      </trkpt>
      <trkpt lat="45.84592" lon="4.24437">
        <ele>518</ele>
        <time>2018-07-06T17:33:33Z</time>
      </trkpt>
      <trkpt lat="45.84593" lon="4.24441">
        <ele>518</ele>
        <time>2018-07-06T17:33:39Z</time>
      </trkpt>
      <trkpt lat="45.84595" lon="4.24443">
        <ele>518</ele>
        <time>2018-07-06T17:33:44Z</time>
      </trkpt>
      <trkpt lat="45.84598" lon="4.24449">
        <ele>519</ele>
        <time>2018-07-06T17:33:50Z</time>
      </trkpt>
      <trkpt lat="45.84604" lon="4.24454">
        <ele>519</ele>
        <time>2018-07-06T17:33:56Z</time>
      </trkpt>
      <trkpt lat="45.8461" lon="4.24459">
        <ele>520</ele>
        <time>2018-07-06T17:34:02Z</time>
      </trkpt>
      <trkpt lat="45.84613" lon="4.2446">
        <ele>520</ele>
        <time>2018-07-06T17:34:08Z</time>
      </trkpt>
      <trkpt lat="45.84617" lon="4.24463">
        <ele>520</ele>
        <time>2018-07-06T17:34:13Z</time>
      </trkpt>
      <trkpt lat="45.84624" lon="4.24467">
        <ele>520</ele>
        <time>2018-07-06T17:34:19Z</time>
      </trkpt>
      <trkpt lat="45.84628" lon="4.2447">
        <ele>520</ele>
        <time>2018-07-06T17:34:24Z</time>
      </trkpt>
      <trkpt lat="45.84628" lon="4.2447">
        <ele>520</ele>
        <time>2018-07-06T17:34:30Z</time>
      </trkpt>
      <trkpt lat="45.84628" lon="4.24471">
        <ele>520</ele>
        <time>2018-07-06T17:34:35Z</time>
      </trkpt>
      <trkpt lat="45.84628" lon="4.24472">
        <ele>520</ele>
        <time>2018-07-06T17:34:40Z</time>
      </trkpt>
      <trkpt lat="45.84627" lon="4.24478">
        <ele>520</ele>
        <time>2018-07-06T17:34:45Z</time>
      </trkpt>
      <trkpt lat="45.84631" lon="4.24482">
        <ele>520</ele>
        <time>2018-07-06T17:34:50Z</time>
      </trkpt>
      <trkpt lat="45.84638" lon="4.24492">
        <ele>521</ele>
        <time>2018-07-06T17:34:56Z</time>
      </trkpt>
      <trkpt lat="45.84642" lon="4.24498">
        <ele>521</ele>
        <time>2018-07-06T17:35:01Z</time>
      </trkpt>
      <trkpt lat="45.84643" lon="4.24501">
        <ele>523</ele>
        <time>2018-07-06T17:35:07Z</time>
      </trkpt>
      <trkpt lat="45.84646" lon="4.24509">
        <ele>524</ele>
        <time>2018-07-06T17:35:13Z</time>
      </trkpt>
      <trkpt lat="45.84648" lon="4.24515">
        <ele>524</ele>
        <time>2018-07-06T17:35:19Z</time>
      </trkpt>
      <trkpt lat="45.84652" lon="4.24521">
        <ele>524</ele>
        <time>2018-07-06T17:35:25Z</time>
      </trkpt>
      <trkpt lat="45.84655" lon="4.24526">
        <ele>524</ele>
        <time>2018-07-06T17:35:30Z</time>
      </trkpt>
      <trkpt lat="45.84661" lon="4.24531">
        <ele>525</ele>
        <time>2018-07-06T17:35:36Z</time>
      </trkpt>
      <trkpt lat="45.84664" lon="4.24539">
        <ele>525</ele>
        <time>2018-07-06T17:35:42Z</time>
      </trkpt>
      <trkpt lat="45.8476" lon="4.24683">
        <ele>535</ele>
        <time>2018-07-06T17:38:21Z</time>
      </trkpt>
      <trkpt lat="45.84867" lon="4.24822">
        <ele>543</ele>
      </trkpt>
      <trkpt lat="45.84891" lon="4.24969">
        <ele>547</ele>
      </trkpt>
      <trkpt lat="45.84939" lon="4.25298">
        <ele>568</ele>
      </trkpt>
      <trkpt lat="45.84988" lon="4.25412">
        <ele>574</ele>
      </trkpt>
      <trkpt lat="45.84966" lon="4.25492">
        <ele>578</ele>
      </trkpt>
      <trkpt lat="45.84933" lon="4.25652">
        <ele>587</ele>
      </trkpt>
      <trkpt lat="45.84879" lon="4.25816">
        <ele>593</ele>
      </trkpt>
      <trkpt lat="45.84864" lon="4.25903">
        <ele>598</ele>
      </trkpt>
      <trkpt lat="45.84801" lon="4.25955">
        <ele>594</ele>
        <time>2018-07-06T18:00:16Z</time>
      </trkpt>
      <trkpt lat="45.84797" lon="4.25959">
        <ele>594</ele>
        <time>2018-07-06T18:00:21Z</time>
      </trkpt>
      <trkpt lat="45.8479" lon="4.25965">
        <ele>594</ele>
        <time>2018-07-06T18:00:27Z</time>
      </trkpt>
      <trkpt lat="45.84783" lon="4.25972">
        <ele>594</ele>
        <time>2018-07-06T18:00:33Z</time>
      </trkpt>
      <trkpt lat="45.84778" lon="4.25977">
        <ele>594</ele>
        <time>2018-07-06T18:00:38Z</time>
      </trkpt>
      <trkpt lat="45.84773" lon="4.25983">
        <ele>594</ele>
        <time>2018-07-06T18:00:44Z</time>
      </trkpt>
      <trkpt lat="45.8477" lon="4.25992">
        <ele>594</ele>
        <time>2018-07-06T18:00:50Z</time>
      </trkpt>
      <trkpt lat="45.84768" lon="4.26">
        <ele>597</ele>
        <time>2018-07-06T18:00:56Z</time>
      </trkpt>
      <trkpt lat="45.84766" lon="4.26009">
        <ele>597</ele>
        <time>2018-07-06T18:01:01Z</time>
      </trkpt>
      <trkpt lat="45.84766" lon="4.26018">
        <ele>597</ele>
        <time>2018-07-06T18:01:06Z</time>
      </trkpt>
      <trkpt lat="45.84768" lon="4.26027">
        <ele>598</ele>
        <time>2018-07-06T18:01:12Z</time>
      </trkpt>
      <trkpt lat="45.8477" lon="4.26037">
        <ele>599</ele>
        <time>2018-07-06T18:01:18Z</time>
      </trkpt>
      <trkpt lat="45.84772" lon="4.26046">
        <ele>599</ele>
        <time>2018-07-06T18:01:24Z</time>
      </trkpt>
      <trkpt lat="45.84775" lon="4.26052">
        <ele>599</ele>
        <time>2018-07-06T18:01:30Z</time>
      </trkpt>
      <trkpt lat="45.84778" lon="4.26061">
        <ele>600</ele>
        <time>2018-07-06T18:01:36Z</time>
      </trkpt>
      <trkpt lat="45.84781" lon="4.26068">
        <ele>600</ele>
        <time>2018-07-06T18:01:41Z</time>
      </trkpt>
      <trkpt lat="45.84783" lon="4.26075">
        <ele>600</ele>
        <time>2018-07-06T18:01:46Z</time>
      </trkpt>
      <trkpt lat="45.84785" lon="4.26083">
        <ele>600</ele>
        <time>2018-07-06T18:01:52Z</time>
      </trkpt>
      <trkpt lat="45.84787" lon="4.26093">
        <ele>603</ele>
        <time>2018-07-06T18:01:58Z</time>
      </trkpt>
      <trkpt lat="45.84787" lon="4.26103">
        <ele>603</ele>
        <time>2018-07-06T18:02:04Z</time>
      </trkpt>
      <trkpt lat="45.84788" lon="4.26114">
        <ele>603</ele>
        <time>2018-07-06T18:02:10Z</time>
      </trkpt>
      <trkpt lat="45.84786" lon="4.26124">
        <ele>603</ele>
        <time>2018-07-06T18:02:16Z</time>
      </trkpt>
      <trkpt lat="45.84786" lon="4.26133">
        <ele>603</ele>
        <time>2018-07-06T18:02:22Z</time>
      </trkpt>
      <trkpt lat="45.84786" lon="4.2614">
        <ele>603</ele>
        <time>2018-07-06T18:02:28Z</time>
      </trkpt>
      <trkpt lat="45.84787" lon="4.26152">
        <ele>603</ele>
        <time>2018-07-06T18:02:34Z</time>
      </trkpt>
      <trkpt lat="45.84787" lon="4.26166">
        <ele>603</ele>
        <time>2018-07-06T18:02:40Z</time>
      </trkpt>
      <trkpt lat="45.84785" lon="4.26174">
        <ele>607</ele>
        <time>2018-07-06T18:02:45Z</time>
      </trkpt>
      <trkpt lat="45.84781" lon="4.26181">
        <ele>607</ele>
        <time>2018-07-06T18:02:51Z</time>
      </trkpt>
      <trkpt lat="45.84777" lon="4.26185">
        <ele>606</ele>
        <time>2018-07-06T18:02:57Z</time>
      </trkpt>
      <trkpt lat="45.84772" lon="4.26191">
        <ele>606</ele>
        <time>2018-07-06T18:03:02Z</time>
      </trkpt>
      <trkpt lat="45.84767" lon="4.26193">
        <ele>606</ele>
        <time>2018-07-06T18:03:08Z</time>
      </trkpt>
      <trkpt lat="45.84761" lon="4.26201">
        <ele>606</ele>
        <time>2018-07-06T18:03:14Z</time>
      </trkpt>
      <trkpt lat="45.84757" lon="4.26209">
        <ele>607</ele>
        <time>2018-07-06T18:03:20Z</time>
      </trkpt>
      <trkpt lat="45.84753" lon="4.26213">
        <ele>607</ele>
        <time>2018-07-06T18:03:26Z</time>
      </trkpt>
      <trkpt lat="45.84748" lon="4.26217">
        <ele>594</ele>
        <time>2018-07-06T18:03:32Z</time>
      </trkpt>
      <trkpt lat="45.84743" lon="4.26225">
        <ele>595</ele>
        <time>2018-07-06T18:03:38Z</time>
      </trkpt>
      <trkpt lat="45.8474" lon="4.26229">
        <ele>596</ele>
        <time>2018-07-06T18:03:43Z</time>
      </trkpt>
      <trkpt lat="45.84736" lon="4.26237">
        <ele>597</ele>
        <time>2018-07-06T18:03:49Z</time>
      </trkpt>
      <trkpt lat="45.84731" lon="4.26244">
        <ele>596</ele>
        <time>2018-07-06T18:03:55Z</time>
      </trkpt>
      <trkpt lat="45.84727" lon="4.26248">
        <ele>596</ele>
        <time>2018-07-06T18:04:01Z</time>
      </trkpt>
      <trkpt lat="45.84724" lon="4.26254">
        <ele>599</ele>
        <time>2018-07-06T18:04:06Z</time>
      </trkpt>
      <trkpt lat="45.8472" lon="4.2626">
        <ele>599</ele>
        <time>2018-07-06T18:04:11Z</time>
      </trkpt>
      <trkpt lat="45.84716" lon="4.2627">
        <ele>598</ele>
        <time>2018-07-06T18:04:17Z</time>
      </trkpt>
      <trkpt lat="45.84714" lon="4.26278">
        <ele>598</ele>
        <time>2018-07-06T18:04:22Z</time>
      </trkpt>
      <trkpt lat="45.84712" lon="4.26281">
        <ele>598</ele>
        <time>2018-07-06T18:04:27Z</time>
      </trkpt>
      <trkpt lat="45.84707" lon="4.26293">
        <ele>597</ele>
        <time>2018-07-06T18:04:33Z</time>
      </trkpt>
      <trkpt lat="45.84705" lon="4.263">
        <ele>597</ele>
        <time>2018-07-06T18:04:39Z</time>
      </trkpt>
      <trkpt lat="45.84703" lon="4.26305">
        <ele>597</ele>
        <time>2018-07-06T18:04:44Z</time>
      </trkpt>
      <trkpt lat="45.847" lon="4.26314">
        <ele>597</ele>
        <time>2018-07-06T18:04:50Z</time>
      </trkpt>
      <trkpt lat="45.84699" lon="4.26325">
        <ele>597</ele>
        <time>2018-07-06T18:04:56Z</time>
      </trkpt>
      <trkpt lat="45.84696" lon="4.26341">
        <ele>597</ele>
        <time>2018-07-06T18:05:01Z</time>
      </trkpt>
      <trkpt lat="45.84695" lon="4.2635">
        <ele>597</ele>
        <time>2018-07-06T18:05:06Z</time>
      </trkpt>
      <trkpt lat="45.84693" lon="4.26355">
        <ele>597</ele>
        <time>2018-07-06T18:05:11Z</time>
      </trkpt>
      <trkpt lat="45.84693" lon="4.26363">
        <ele>598</ele>
        <time>2018-07-06T18:05:16Z</time>
      </trkpt>
      <trkpt lat="45.84694" lon="4.26373">
        <ele>598</ele>
        <time>2018-07-06T18:05:22Z</time>
      </trkpt>
      <trkpt lat="45.84694" lon="4.26383">
        <ele>598</ele>
        <time>2018-07-06T18:05:27Z</time>
      </trkpt>
      <trkpt lat="45.84695" lon="4.26393">
        <ele>598</ele>
        <time>2018-07-06T18:05:33Z</time>
      </trkpt>
      <trkpt lat="45.84696" lon="4.26399">
        <ele>598</ele>
        <time>2018-07-06T18:05:38Z</time>
      </trkpt>
      <trkpt lat="45.84697" lon="4.26409">
        <ele>598</ele>
        <time>2018-07-06T18:05:44Z</time>
      </trkpt>
      <trkpt lat="45.84698" lon="4.26416">
        <ele>598</ele>
        <time>2018-07-06T18:05:50Z</time>
      </trkpt>
      <trkpt lat="45.847" lon="4.26421">
        <ele>598</ele>
        <time>2018-07-06T18:05:55Z</time>
      </trkpt>
      <trkpt lat="45.84702" lon="4.26428">
        <ele>598</ele>
        <time>2018-07-06T18:06:00Z</time>
      </trkpt>
      <trkpt lat="45.84707" lon="4.26437">
        <ele>599</ele>
        <time>2018-07-06T18:06:06Z</time>
      </trkpt>
      <trkpt lat="45.84712" lon="4.26446">
        <ele>600</ele>
        <time>2018-07-06T18:06:11Z</time>
      </trkpt>
      <trkpt lat="45.84716" lon="4.26452">
        <ele>600</ele>
        <time>2018-07-06T18:06:17Z</time>
      </trkpt>
      <trkpt lat="45.84719" lon="4.26457">
        <ele>601</ele>
        <time>2018-07-06T18:06:23Z</time>
      </trkpt>
      <trkpt lat="45.84723" lon="4.26466">
        <ele>601</ele>
        <time>2018-07-06T18:06:28Z</time>
      </trkpt>
      <trkpt lat="45.84727" lon="4.26472">
        <ele>601</ele>
        <time>2018-07-06T18:06:34Z</time>
      </trkpt>
      <trkpt lat="45.84734" lon="4.2648">
        <ele>601</ele>
        <time>2018-07-06T18:06:40Z</time>
      </trkpt>
      <trkpt lat="45.84738" lon="4.2649">
        <ele>602</ele>
        <time>2018-07-06T18:06:46Z</time>
      </trkpt>
      <trkpt lat="45.8474" lon="4.26498">
        <ele>602</ele>
        <time>2018-07-06T18:06:51Z</time>
      </trkpt>
      <trkpt lat="45.84744" lon="4.26507">
        <ele>603</ele>
        <time>2018-07-06T18:06:57Z</time>
      </trkpt>
      <trkpt lat="45.84746" lon="4.26514">
        <ele>604</ele>
        <time>2018-07-06T18:07:03Z</time>
      </trkpt>
      <trkpt lat="45.84749" lon="4.26523">
        <ele>604</ele>
        <time>2018-07-06T18:07:09Z</time>
      </trkpt>
      <trkpt lat="45.84751" lon="4.26531">
        <ele>611</ele>
        <time>2018-07-06T18:07:14Z</time>
      </trkpt>
      <trkpt lat="45.84753" lon="4.2654">
        <ele>611</ele>
        <time>2018-07-06T18:07:20Z</time>
      </trkpt>
      <trkpt lat="45.84754" lon="4.26545">
        <ele>611</ele>
        <time>2018-07-06T18:07:25Z</time>
      </trkpt>
      <trkpt lat="45.84755" lon="4.26556">
        <ele>610</ele>
        <time>2018-07-06T18:07:31Z</time>
      </trkpt>
      <trkpt lat="45.8475" lon="4.26568">
        <ele>608</ele>
        <time>2018-07-06T18:07:37Z</time>
      </trkpt>
      <trkpt lat="45.84746" lon="4.26573">
        <ele>604</ele>
        <time>2018-07-06T18:07:43Z</time>
      </trkpt>
      <trkpt lat="45.84741" lon="4.26577">
        <ele>604</ele>
        <time>2018-07-06T18:07:49Z</time>
      </trkpt>
      <trkpt lat="45.84733" lon="4.26578">
        <ele>605</ele>
        <time>2018-07-06T18:07:55Z</time>
      </trkpt>
      <trkpt lat="45.84726" lon="4.26577">
        <ele>605</ele>
        <time>2018-07-06T18:08:01Z</time>
      </trkpt>
      <trkpt lat="45.8472" lon="4.26571">
        <ele>606</ele>
        <time>2018-07-06T18:08:07Z</time>
      </trkpt>
      <trkpt lat="45.84716" lon="4.26565">
        <ele>606</ele>
        <time>2018-07-06T18:08:12Z</time>
      </trkpt>
      <trkpt lat="45.84709" lon="4.26556">
        <ele>606</ele>
        <time>2018-07-06T18:08:18Z</time>
      </trkpt>
      <trkpt lat="45.84704" lon="4.26549">
        <ele>606</ele>
        <time>2018-07-06T18:08:23Z</time>
      </trkpt>
      <trkpt lat="45.84701" lon="4.26543">
        <ele>606</ele>
        <time>2018-07-06T18:08:29Z</time>
      </trkpt>
      <trkpt lat="45.84695" lon="4.26538">
        <ele>605</ele>
        <time>2018-07-06T18:08:35Z</time>
      </trkpt>
      <trkpt lat="45.8469" lon="4.26536">
        <ele>605</ele>
        <time>2018-07-06T18:08:41Z</time>
      </trkpt>
      <trkpt lat="45.84685" lon="4.26533">
        <ele>605</ele>
        <time>2018-07-06T18:08:47Z</time>
      </trkpt>
      <trkpt lat="45.84681" lon="4.26529">
        <ele>604</ele>
        <time>2018-07-06T18:08:52Z</time>
      </trkpt>
      <trkpt lat="45.84677" lon="4.26525">
        <ele>603</ele>
        <time>2018-07-06T18:08:58Z</time>
      </trkpt>
      <trkpt lat="45.84672" lon="4.26524">
        <ele>603</ele>
        <time>2018-07-06T18:09:04Z</time>
      </trkpt>
      <trkpt lat="45.84664" lon="4.26518">
        <ele>604</ele>
        <time>2018-07-06T18:09:09Z</time>
      </trkpt>
      <trkpt lat="45.84659" lon="4.26514">
        <ele>603</ele>
        <time>2018-07-06T18:09:14Z</time>
      </trkpt>
      <trkpt lat="45.84651" lon="4.26511">
        <ele>604</ele>
        <time>2018-07-06T18:09:20Z</time>
      </trkpt>
      <trkpt lat="45.84646" lon="4.26507">
        <ele>604</ele>
        <time>2018-07-06T18:09:25Z</time>
      </trkpt>
      <trkpt lat="45.84642" lon="4.26504">
        <ele>605</ele>
        <time>2018-07-06T18:09:30Z</time>
      </trkpt>
      <trkpt lat="45.84635" lon="4.265">
        <ele>606</ele>
        <time>2018-07-06T18:09:36Z</time>
      </trkpt>
      <trkpt lat="45.84629" lon="4.26498">
        <ele>596</ele>
        <time>2018-07-06T18:09:42Z</time>
      </trkpt>
      <trkpt lat="45.84622" lon="4.26494">
        <ele>597</ele>
        <time>2018-07-06T18:09:48Z</time>
      </trkpt>
      <trkpt lat="45.84617" lon="4.2649">
        <ele>597</ele>
        <time>2018-07-06T18:09:54Z</time>
      </trkpt>
      <trkpt lat="45.84611" lon="4.26485">
        <ele>597</ele>
        <time>2018-07-06T18:09:59Z</time>
      </trkpt>
      <trkpt lat="45.84606" lon="4.26479">
        <ele>597</ele>
        <time>2018-07-06T18:10:05Z</time>
      </trkpt>
      <trkpt lat="45.846" lon="4.26475">
        <ele>597</ele>
        <time>2018-07-06T18:10:11Z</time>
      </trkpt>
      <trkpt lat="45.84596" lon="4.26472">
        <ele>597</ele>
        <time>2018-07-06T18:10:16Z</time>
      </trkpt>
      <trkpt lat="45.84589" lon="4.26472">
        <ele>597</ele>
        <time>2018-07-06T18:10:22Z</time>
      </trkpt>
      <trkpt lat="45.84583" lon="4.26471">
        <ele>600</ele>
        <time>2018-07-06T18:10:27Z</time>
      </trkpt>
      <trkpt lat="45.84577" lon="4.26474">
        <ele>600</ele>
        <time>2018-07-06T18:10:33Z</time>
      </trkpt>
      <trkpt lat="45.8457" lon="4.26472">
        <ele>600</ele>
        <time>2018-07-06T18:10:38Z</time>
      </trkpt>
      <trkpt lat="45.84563" lon="4.26474">
        <ele>600</ele>
        <time>2018-07-06T18:10:43Z</time>
      </trkpt>
      <trkpt lat="45.84557" lon="4.26475">
        <ele>600</ele>
        <time>2018-07-06T18:10:49Z</time>
      </trkpt>
      <trkpt lat="45.84552" lon="4.26477">
        <ele>600</ele>
        <time>2018-07-06T18:10:55Z</time>
      </trkpt>
      <trkpt lat="45.84547" lon="4.26479">
        <ele>601</ele>
        <time>2018-07-06T18:11:00Z</time>
      </trkpt>
      <trkpt lat="45.84541" lon="4.26483">
        <ele>601</ele>
        <time>2018-07-06T18:11:06Z</time>
      </trkpt>
      <trkpt lat="45.84535" lon="4.26488">
        <ele>601</ele>
        <time>2018-07-06T18:11:12Z</time>
      </trkpt>
      <trkpt lat="45.84528" lon="4.2649">
        <ele>602</ele>
        <time>2018-07-06T18:11:17Z</time>
      </trkpt>
      <trkpt lat="45.84523" lon="4.26491">
        <ele>602</ele>
        <time>2018-07-06T18:11:23Z</time>
      </trkpt>
      <trkpt lat="45.84518" lon="4.26494">
        <ele>603</ele>
        <time>2018-07-06T18:11:28Z</time>
      </trkpt>
      <trkpt lat="45.84512" lon="4.26498">
        <ele>604</ele>
        <time>2018-07-06T18:11:33Z</time>
      </trkpt>
      <trkpt lat="45.84507" lon="4.265">
        <ele>604</ele>
        <time>2018-07-06T18:11:38Z</time>
      </trkpt>
      <trkpt lat="45.845" lon="4.265">
        <ele>606</ele>
        <time>2018-07-06T18:11:44Z</time>
      </trkpt>
      <trkpt lat="45.84494" lon="4.26502">
        <ele>608</ele>
        <time>2018-07-06T18:11:50Z</time>
      </trkpt>
      <trkpt lat="45.84489" lon="4.26502">
        <ele>609</ele>
        <time>2018-07-06T18:11:56Z</time>
      </trkpt>
      <trkpt lat="45.84483" lon="4.26501">
        <ele>610</ele>
        <time>2018-07-06T18:12:01Z</time>
      </trkpt>
      <trkpt lat="45.84476" lon="4.265">
        <ele>606</ele>
        <time>2018-07-06T18:12:07Z</time>
      </trkpt>
      <trkpt lat="45.84471" lon="4.26496">
        <ele>607</ele>
        <time>2018-07-06T18:12:13Z</time>
      </trkpt>
      <trkpt lat="45.84467" lon="4.26494">
        <ele>607</ele>
        <time>2018-07-06T18:12:18Z</time>
      </trkpt>
      <trkpt lat="45.84463" lon="4.26494">
        <ele>607</ele>
        <time>2018-07-06T18:12:23Z</time>
      </trkpt>
      <trkpt lat="45.84457" lon="4.26491">
        <ele>607</ele>
        <time>2018-07-06T18:12:29Z</time>
      </trkpt>
      <trkpt lat="45.84454" lon="4.2649">
        <ele>607</ele>
        <time>2018-07-06T18:12:34Z</time>
      </trkpt>
      <trkpt lat="45.84452" lon="4.26488">
        <ele>607</ele>
        <time>2018-07-06T18:12:39Z</time>
      </trkpt>
      <trkpt lat="45.84452" lon="4.26487">
        <ele>607</ele>
        <time>2018-07-06T18:12:44Z</time>
      </trkpt>
      <trkpt lat="45.84452" lon="4.26488">
        <ele>608</ele>
        <time>2018-07-06T18:12:50Z</time>
      </trkpt>
      <trkpt lat="45.84452" lon="4.26486">
        <ele>607</ele>
        <time>2018-07-06T18:12:56Z</time>
      </trkpt>
      <trkpt lat="45.84452" lon="4.26484">
        <ele>607</ele>
        <time>2018-07-06T18:13:01Z</time>
      </trkpt>
      <trkpt lat="45.84453" lon="4.2648">
        <ele>607</ele>
        <time>2018-07-06T18:13:07Z</time>
      </trkpt>
      <trkpt lat="45.84452" lon="4.26474">
        <ele>607</ele>
        <time>2018-07-06T18:13:13Z</time>
      </trkpt>
      <trkpt lat="45.84449" lon="4.26471">
        <ele>607</ele>
        <time>2018-07-06T18:13:18Z</time>
      </trkpt>
      <trkpt lat="45.84444" lon="4.26465">
        <ele>607</ele>
        <time>2018-07-06T18:13:24Z</time>
      </trkpt>
      <trkpt lat="45.84435" lon="4.26459">
        <ele>607</ele>
        <time>2018-07-06T18:13:30Z</time>
      </trkpt>
      <trkpt lat="45.84429" lon="4.26456">
        <ele>607</ele>
        <time>2018-07-06T18:13:36Z</time>
      </trkpt>
      <trkpt lat="45.84421" lon="4.26448">
        <ele>607</ele>
        <time>2018-07-06T18:13:42Z</time>
      </trkpt>
      <trkpt lat="45.84417" lon="4.26438">
        <ele>607</ele>
        <time>2018-07-06T18:13:48Z</time>
      </trkpt>
      <trkpt lat="45.84417" lon="4.26437">
        <ele>610</ele>
        <time>2018-07-06T18:13:54Z</time>
      </trkpt>
      <trkpt lat="45.84416" lon="4.26434">
        <ele>610</ele>
        <time>2018-07-06T18:13:59Z</time>
      </trkpt>
      <trkpt lat="45.84411" lon="4.26433">
        <ele>610</ele>
        <time>2018-07-06T18:14:04Z</time>
      </trkpt>
      <trkpt lat="45.84402" lon="4.26429">
        <ele>610</ele>
        <time>2018-07-06T18:14:10Z</time>
      </trkpt>
      <trkpt lat="45.84398" lon="4.26428">
        <ele>610</ele>
        <time>2018-07-06T18:14:15Z</time>
      </trkpt>
      <trkpt lat="45.84392" lon="4.26428">
        <ele>611</ele>
        <time>2018-07-06T18:14:21Z</time>
      </trkpt>
      <trkpt lat="45.84389" lon="4.26429">
        <ele>611</ele>
        <time>2018-07-06T18:14:26Z</time>
      </trkpt>
      <trkpt lat="45.84382" lon="4.26431">
        <ele>611</ele>
        <time>2018-07-06T18:14:32Z</time>
      </trkpt>
      <trkpt lat="45.84377" lon="4.26433">
        <ele>612</ele>
        <time>2018-07-06T18:14:37Z</time>
      </trkpt>
      <trkpt lat="45.84373" lon="4.26435">
        <ele>612</ele>
        <time>2018-07-06T18:14:42Z</time>
      </trkpt>
      <trkpt lat="45.84365" lon="4.26436">
        <ele>612</ele>
        <time>2018-07-06T18:14:48Z</time>
      </trkpt>
      <trkpt lat="45.84359" lon="4.26439">
        <ele>612</ele>
        <time>2018-07-06T18:14:54Z</time>
      </trkpt>
      <trkpt lat="45.84352" lon="4.26441">
        <ele>612</ele>
        <time>2018-07-06T18:15:00Z</time>
      </trkpt>
      <trkpt lat="45.84347" lon="4.26443">
        <ele>612</ele>
        <time>2018-07-06T18:15:05Z</time>
      </trkpt>
      <trkpt lat="45.84342" lon="4.26446">
        <ele>612</ele>
        <time>2018-07-06T18:15:10Z</time>
      </trkpt>
      <trkpt lat="45.84336" lon="4.26448">
        <ele>612</ele>
        <time>2018-07-06T18:15:16Z</time>
      </trkpt>
      <trkpt lat="45.84332" lon="4.26452">
        <ele>612</ele>
        <time>2018-07-06T18:15:22Z</time>
      </trkpt>
      <trkpt lat="45.84329" lon="4.26452">
        <ele>612</ele>
        <time>2018-07-06T18:15:28Z</time>
      </trkpt>
      <trkpt lat="45.84329" lon="4.26444">
        <ele>612</ele>
        <time>2018-07-06T18:15:34Z</time>
      </trkpt>
      <trkpt lat="45.8433" lon="4.26439">
        <ele>612</ele>
        <time>2018-07-06T18:15:39Z</time>
      </trkpt>
      <trkpt lat="45.84326" lon="4.2643">
        <ele>613</ele>
        <time>2018-07-06T18:15:45Z</time>
      </trkpt>
      <trkpt lat="45.84323" lon="4.26423">
        <ele>613</ele>
        <time>2018-07-06T18:15:51Z</time>
      </trkpt>
      <trkpt lat="45.84321" lon="4.26416">
        <ele>614</ele>
        <time>2018-07-06T18:15:56Z</time>
      </trkpt>
      <trkpt lat="45.84315" lon="4.26407">
        <ele>614</ele>
        <time>2018-07-06T18:16:02Z</time>
      </trkpt>
      <trkpt lat="45.84312" lon="4.26399">
        <ele>614</ele>
        <time>2018-07-06T18:16:07Z</time>
      </trkpt>
      <trkpt lat="45.8431" lon="4.26392">
        <ele>614</ele>
        <time>2018-07-06T18:16:13Z</time>
      </trkpt>
      <trkpt lat="45.84306" lon="4.26384">
        <ele>615</ele>
        <time>2018-07-06T18:16:19Z</time>
      </trkpt>
      <trkpt lat="45.84305" lon="4.26376">
        <ele>615</ele>
        <time>2018-07-06T18:16:25Z</time>
      </trkpt>
      <trkpt lat="45.84301" lon="4.26369">
        <ele>615</ele>
        <time>2018-07-06T18:16:31Z</time>
      </trkpt>
      <trkpt lat="45.84299" lon="4.26363">
        <ele>615</ele>
        <time>2018-07-06T18:16:36Z</time>
      </trkpt>
      <trkpt lat="45.84297" lon="4.26358">
        <ele>615</ele>
        <time>2018-07-06T18:16:42Z</time>
      </trkpt>
      <trkpt lat="45.84296" lon="4.26355">
        <ele>615</ele>
        <time>2018-07-06T18:16:48Z</time>
      </trkpt>
      <trkpt lat="45.84294" lon="4.26349">
        <ele>615</ele>
        <time>2018-07-06T18:16:53Z</time>
      </trkpt>
      <trkpt lat="45.84293" lon="4.26341">
        <ele>616</ele>
        <time>2018-07-06T18:16:58Z</time>
      </trkpt>
      <trkpt lat="45.84291" lon="4.26334">
        <ele>616</ele>
        <time>2018-07-06T18:17:04Z</time>
      </trkpt>
      <trkpt lat="45.8429" lon="4.26326">
        <ele>619</ele>
        <time>2018-07-06T18:17:09Z</time>
      </trkpt>
      <trkpt lat="45.8429" lon="4.26318">
        <ele>619</ele>
        <time>2018-07-06T18:17:15Z</time>
      </trkpt>
      <trkpt lat="45.84289" lon="4.2631">
        <ele>619</ele>
        <time>2018-07-06T18:17:20Z</time>
      </trkpt>
      <trkpt lat="45.84288" lon="4.26299">
        <ele>619</ele>
        <time>2018-07-06T18:17:26Z</time>
      </trkpt>
      <trkpt lat="45.84288" lon="4.26295">
        <ele>619</ele>
        <time>2018-07-06T18:17:31Z</time>
      </trkpt>
      <trkpt lat="45.84286" lon="4.26287">
        <ele>620</ele>
        <time>2018-07-06T18:17:37Z</time>
      </trkpt>
      <trkpt lat="45.84284" lon="4.26275">
        <ele>620</ele>
        <time>2018-07-06T18:17:43Z</time>
      </trkpt>
      <trkpt lat="45.84283" lon="4.26268">
        <ele>620</ele>
        <time>2018-07-06T18:17:49Z</time>
      </trkpt>
      <trkpt lat="45.84282" lon="4.26259">
        <ele>621</ele>
        <time>2018-07-06T18:17:55Z</time>
      </trkpt>
      <trkpt lat="45.84282" lon="4.26255">
        <ele>621</ele>
        <time>2018-07-06T18:18:00Z</time>
      </trkpt>
      <trkpt lat="45.8428" lon="4.26245">
        <ele>624</ele>
        <time>2018-07-06T18:18:06Z</time>
      </trkpt>
      <trkpt lat="45.84279" lon="4.26236">
        <ele>624</ele>
        <time>2018-07-06T18:18:11Z</time>
      </trkpt>
      <trkpt lat="45.84278" lon="4.26228">
        <ele>624</ele>
        <time>2018-07-06T18:18:17Z</time>
      </trkpt>
      <trkpt lat="45.84275" lon="4.26206">
        <ele>625</ele>
        <time>2018-07-06T18:18:23Z</time>
      </trkpt>
      <trkpt lat="45.84271" lon="4.26196">
        <ele>626</ele>
        <time>2018-07-06T18:18:28Z</time>
      </trkpt>
      <trkpt lat="45.84265" lon="4.26186">
        <ele>627</ele>
        <time>2018-07-06T18:18:33Z</time>
      </trkpt>
      <trkpt lat="45.84261" lon="4.26177">
        <ele>628</ele>
        <time>2018-07-06T18:18:39Z</time>
      </trkpt>
      <trkpt lat="45.84258" lon="4.26169">
        <ele>630</ele>
        <time>2018-07-06T18:18:45Z</time>
      </trkpt>
      <trkpt lat="45.84256" lon="4.26162">
        <ele>631</ele>
        <time>2018-07-06T18:18:51Z</time>
      </trkpt>
      <trkpt lat="45.84253" lon="4.26153">
        <ele>630</ele>
        <time>2018-07-06T18:18:57Z</time>
      </trkpt>
      <trkpt lat="45.84248" lon="4.26146">
        <ele>632</ele>
        <time>2018-07-06T18:19:03Z</time>
      </trkpt>
      <trkpt lat="45.84247" lon="4.26135">
        <ele>633</ele>
        <time>2018-07-06T18:19:09Z</time>
      </trkpt>
      <trkpt lat="45.84246" lon="4.26124">
        <ele>633</ele>
        <time>2018-07-06T18:19:14Z</time>
      </trkpt>
      <trkpt lat="45.84245" lon="4.26113">
        <ele>634</ele>
        <time>2018-07-06T18:19:20Z</time>
      </trkpt>
      <trkpt lat="45.84245" lon="4.26104">
        <ele>634</ele>
        <time>2018-07-06T18:19:26Z</time>
      </trkpt>
      <trkpt lat="45.84243" lon="4.26096">
        <ele>634</ele>
        <time>2018-07-06T18:19:31Z</time>
      </trkpt>
      <trkpt lat="45.8424" lon="4.26087">
        <ele>635</ele>
        <time>2018-07-06T18:19:37Z</time>
      </trkpt>
      <trkpt lat="45.84237" lon="4.26079">
        <ele>635</ele>
        <time>2018-07-06T18:19:43Z</time>
      </trkpt>
      <trkpt lat="45.84236" lon="4.26066">
        <ele>635</ele>
        <time>2018-07-06T18:19:49Z</time>
      </trkpt>
      <trkpt lat="45.84233" lon="4.26057">
        <ele>634</ele>
        <time>2018-07-06T18:19:55Z</time>
      </trkpt>
      <trkpt lat="45.84229" lon="4.26048">
        <ele>634</ele>
        <time>2018-07-06T18:20:00Z</time>
      </trkpt>
      <trkpt lat="45.84225" lon="4.26038">
        <ele>634</ele>
        <time>2018-07-06T18:20:06Z</time>
      </trkpt>
      <trkpt lat="45.8422" lon="4.26026">
        <ele>633</ele>
        <time>2018-07-06T18:20:12Z</time>
      </trkpt>
      <trkpt lat="45.84214" lon="4.26018">
        <ele>633</ele>
        <time>2018-07-06T18:20:18Z</time>
      </trkpt>
      <trkpt lat="45.84212" lon="4.26012">
        <ele>633</ele>
        <time>2018-07-06T18:20:24Z</time>
      </trkpt>
      <trkpt lat="45.84208" lon="4.26003">
        <ele>633</ele>
        <time>2018-07-06T18:20:29Z</time>
      </trkpt>
      <trkpt lat="45.84207" lon="4.25994">
        <ele>630</ele>
        <time>2018-07-06T18:20:35Z</time>
      </trkpt>
      <trkpt lat="45.84203" lon="4.25985">
        <ele>630</ele>
        <time>2018-07-06T18:20:41Z</time>
      </trkpt>
      <trkpt lat="45.842" lon="4.2598">
        <ele>630</ele>
        <time>2018-07-06T18:20:46Z</time>
      </trkpt>
      <trkpt lat="45.84197" lon="4.25975">
        <ele>630</ele>
        <time>2018-07-06T18:20:52Z</time>
      </trkpt>
      <trkpt lat="45.84194" lon="4.25972">
        <ele>630</ele>
        <time>2018-07-06T18:20:57Z</time>
      </trkpt>
      <trkpt lat="45.84189" lon="4.25963">
        <ele>630</ele>
        <time>2018-07-06T18:21:03Z</time>
      </trkpt>
      <trkpt lat="45.84185" lon="4.25956">
        <ele>630</ele>
        <time>2018-07-06T18:21:08Z</time>
      </trkpt>
      <trkpt lat="45.84179" lon="4.25945">
        <ele>630</ele>
        <time>2018-07-06T18:21:14Z</time>
      </trkpt>
      <trkpt lat="45.84174" lon="4.25936">
        <ele>630</ele>
        <time>2018-07-06T18:21:20Z</time>
      </trkpt>
      <trkpt lat="45.84168" lon="4.2593">
        <ele>630</ele>
        <time>2018-07-06T18:21:25Z</time>
      </trkpt>
      <trkpt lat="45.84163" lon="4.25923">
        <ele>630</ele>
        <time>2018-07-06T18:21:31Z</time>
      </trkpt>
      <trkpt lat="45.84156" lon="4.25916">
        <ele>630</ele>
        <time>2018-07-06T18:21:37Z</time>
      </trkpt>
      <trkpt lat="45.84152" lon="4.25913">
        <ele>630</ele>
        <time>2018-07-06T18:21:43Z</time>
      </trkpt>
      <trkpt lat="45.84151" lon="4.25911">
        <ele>629</ele>
        <time>2018-07-06T18:21:49Z</time>
      </trkpt>
      <trkpt lat="45.84147" lon="4.25908">
        <ele>629</ele>
        <time>2018-07-06T18:21:55Z</time>
      </trkpt>
      <trkpt lat="45.84142" lon="4.25903">
        <ele>629</ele>
        <time>2018-07-06T18:22:01Z</time>
      </trkpt>
      <trkpt lat="45.84137" lon="4.25899">
        <ele>628</ele>
        <time>2018-07-06T18:22:07Z</time>
      </trkpt>
      <trkpt lat="45.84129" lon="4.25892">
        <ele>628</ele>
        <time>2018-07-06T18:22:13Z</time>
      </trkpt>
      <trkpt lat="45.84124" lon="4.2589">
        <ele>628</ele>
        <time>2018-07-06T18:22:18Z</time>
      </trkpt>
      <trkpt lat="45.8412" lon="4.25887">
        <ele>628</ele>
        <time>2018-07-06T18:22:24Z</time>
      </trkpt>
      <trkpt lat="45.84117" lon="4.25879">
        <ele>628</ele>
        <time>2018-07-06T18:22:29Z</time>
      </trkpt>
      <trkpt lat="45.84112" lon="4.25869">
        <ele>627</ele>
        <time>2018-07-06T18:22:35Z</time>
      </trkpt>
      <trkpt lat="45.84108" lon="4.2586">
        <ele>627</ele>
        <time>2018-07-06T18:22:41Z</time>
      </trkpt>
      <trkpt lat="45.84106" lon="4.25854">
        <ele>627</ele>
        <time>2018-07-06T18:22:46Z</time>
      </trkpt>
      <trkpt lat="45.84103" lon="4.25846">
        <ele>626</ele>
        <time>2018-07-06T18:22:51Z</time>
      </trkpt>
      <trkpt lat="45.841" lon="4.25835">
        <ele>626</ele>
        <time>2018-07-06T18:22:57Z</time>
      </trkpt>
      <trkpt lat="45.84097" lon="4.25826">
        <ele>624</ele>
        <time>2018-07-06T18:23:02Z</time>
      </trkpt>
      <trkpt lat="45.84095" lon="4.25816">
        <ele>624</ele>
        <time>2018-07-06T18:23:08Z</time>
      </trkpt>
      <trkpt lat="45.84093" lon="4.25806">
        <ele>624</ele>
        <time>2018-07-06T18:23:14Z</time>
      </trkpt>
      <trkpt lat="45.84092" lon="4.25796">
        <ele>624</ele>
        <time>2018-07-06T18:23:19Z</time>
      </trkpt>
      <trkpt lat="45.84093" lon="4.25787">
        <ele>624</ele>
        <time>2018-07-06T18:23:25Z</time>
      </trkpt>
      <trkpt lat="45.84092" lon="4.25777">
        <ele>623</ele>
        <time>2018-07-06T18:23:31Z</time>
      </trkpt>
      <trkpt lat="45.84091" lon="4.2577">
        <ele>623</ele>
        <time>2018-07-06T18:23:36Z</time>
      </trkpt>
      <trkpt lat="45.84091" lon="4.25761">
        <ele>622</ele>
        <time>2018-07-06T18:23:41Z</time>
      </trkpt>
      <trkpt lat="45.84093" lon="4.25751">
        <ele>621</ele>
        <time>2018-07-06T18:23:47Z</time>
      </trkpt>
      <trkpt lat="45.84094" lon="4.25746">
        <ele>619</ele>
        <time>2018-07-06T18:23:52Z</time>
      </trkpt>
      <trkpt lat="45.84095" lon="4.25739">
        <ele>619</ele>
        <time>2018-07-06T18:23:58Z</time>
      </trkpt>
      <trkpt lat="45.84097" lon="4.25731">
        <ele>618</ele>
        <time>2018-07-06T18:24:03Z</time>
      </trkpt>
      <trkpt lat="45.84099" lon="4.25719">
        <ele>617</ele>
        <time>2018-07-06T18:24:09Z</time>
      </trkpt>
      <trkpt lat="45.84101" lon="4.25708">
        <ele>617</ele>
        <time>2018-07-06T18:24:14Z</time>
      </trkpt>
      <trkpt lat="45.84102" lon="4.257">
        <ele>616</ele>
        <time>2018-07-06T18:24:20Z</time>
      </trkpt>
      <trkpt lat="45.84103" lon="4.25691">
        <ele>616</ele>
        <time>2018-07-06T18:24:25Z</time>
      </trkpt>
      <trkpt lat="45.84105" lon="4.2568">
        <ele>615</ele>
        <time>2018-07-06T18:24:30Z</time>
      </trkpt>
      <trkpt lat="45.84108" lon="4.25668">
        <ele>615</ele>
        <time>2018-07-06T18:24:36Z</time>
      </trkpt>
      <trkpt lat="45.84111" lon="4.25663">
        <ele>610</ele>
        <time>2018-07-06T18:24:42Z</time>
      </trkpt>
      <trkpt lat="45.84111" lon="4.25659">
        <ele>610</ele>
        <time>2018-07-06T18:24:47Z</time>
      </trkpt>
      <trkpt lat="45.84114" lon="4.2565">
        <ele>610</ele>
        <time>2018-07-06T18:24:53Z</time>
      </trkpt>
      <trkpt lat="45.84117" lon="4.25643">
        <ele>609</ele>
        <time>2018-07-06T18:24:59Z</time>
      </trkpt>
      <trkpt lat="45.84119" lon="4.25636">
        <ele>609</ele>
        <time>2018-07-06T18:25:04Z</time>
      </trkpt>
      <trkpt lat="45.84118" lon="4.2563">
        <ele>609</ele>
        <time>2018-07-06T18:25:10Z</time>
      </trkpt>
      <trkpt lat="45.84118" lon="4.25631">
        <ele>609</ele>
        <time>2018-07-06T18:25:16Z</time>
      </trkpt>
      <trkpt lat="45.84118" lon="4.2563">
        <ele>609</ele>
        <time>2018-07-06T18:25:22Z</time>
      </trkpt>
      <trkpt lat="45.84118" lon="4.25627">
        <ele>609</ele>
        <time>2018-07-06T18:25:27Z</time>
      </trkpt>
      <trkpt lat="45.8412" lon="4.25625">
        <ele>609</ele>
        <time>2018-07-06T18:25:33Z</time>
      </trkpt>
      <trkpt lat="45.84119" lon="4.25616">
        <ele>608</ele>
        <time>2018-07-06T18:25:39Z</time>
      </trkpt>
      <trkpt lat="45.84119" lon="4.25608">
        <ele>608</ele>
        <time>2018-07-06T18:25:44Z</time>
      </trkpt>
      <trkpt lat="45.84117" lon="4.25599">
        <ele>608</ele>
        <time>2018-07-06T18:25:50Z</time>
      </trkpt>
      <trkpt lat="45.84115" lon="4.25592">
        <ele>607</ele>
        <time>2018-07-06T18:25:55Z</time>
      </trkpt>
      <trkpt lat="45.84114" lon="4.25583">
        <ele>604</ele>
        <time>2018-07-06T18:26:00Z</time>
      </trkpt>
      <trkpt lat="45.84111" lon="4.25575">
        <ele>604</ele>
        <time>2018-07-06T18:26:06Z</time>
      </trkpt>
      <trkpt lat="45.84107" lon="4.25571">
        <ele>604</ele>
        <time>2018-07-06T18:26:11Z</time>
      </trkpt>
      <trkpt lat="45.84108" lon="4.2557">
        <ele>604</ele>
        <time>2018-07-06T18:26:16Z</time>
      </trkpt>
      <trkpt lat="45.84109" lon="4.25569">
        <ele>604</ele>
        <time>2018-07-06T18:26:22Z</time>
      </trkpt>
      <trkpt lat="45.84109" lon="4.25569">
        <ele>604</ele>
        <time>2018-07-06T18:26:27Z</time>
      </trkpt>
      <trkpt lat="45.84108" lon="4.25566">
        <ele>604</ele>
        <time>2018-07-06T18:26:32Z</time>
      </trkpt>
      <trkpt lat="45.84109" lon="4.25566">
        <ele>604</ele>
        <time>2018-07-06T18:26:38Z</time>
      </trkpt>
      <trkpt lat="45.8411" lon="4.25564">
        <ele>604</ele>
        <time>2018-07-06T18:26:43Z</time>
      </trkpt>
      <trkpt lat="45.84108" lon="4.25564">
        <ele>604</ele>
        <time>2018-07-06T18:26:49Z</time>
      </trkpt>
      <trkpt lat="45.84104" lon="4.25559">
        <ele>604</ele>
        <time>2018-07-06T18:26:55Z</time>
      </trkpt>
      <trkpt lat="45.841" lon="4.25553">
        <ele>603</ele>
        <time>2018-07-06T18:27:01Z</time>
      </trkpt>
      <trkpt lat="45.84094" lon="4.25546">
        <ele>603</ele>
        <time>2018-07-06T18:27:07Z</time>
      </trkpt>
      <trkpt lat="45.84087" lon="4.25538">
        <ele>603</ele>
        <time>2018-07-06T18:27:13Z</time>
      </trkpt>
      <trkpt lat="45.84083" lon="4.25532">
        <ele>600</ele>
        <time>2018-07-06T18:27:19Z</time>
      </trkpt>
      <trkpt lat="45.84077" lon="4.25525">
        <ele>600</ele>
        <time>2018-07-06T18:27:24Z</time>
      </trkpt>
      <trkpt lat="45.84074" lon="4.25517">
        <ele>600</ele>
        <time>2018-07-06T18:27:30Z</time>
      </trkpt>
      <trkpt lat="45.8407" lon="4.25504">
        <ele>600</ele>
        <time>2018-07-06T18:27:36Z</time>
      </trkpt>
      <trkpt lat="45.84067" lon="4.25494">
        <ele>598</ele>
        <time>2018-07-06T18:27:42Z</time>
      </trkpt>
      <trkpt lat="45.84064" lon="4.2549">
        <ele>598</ele>
        <time>2018-07-06T18:27:47Z</time>
      </trkpt>
      <trkpt lat="45.84057" lon="4.25486">
        <ele>597</ele>
        <time>2018-07-06T18:27:53Z</time>
      </trkpt>
      <trkpt lat="45.84052" lon="4.25481">
        <ele>596</ele>
        <time>2018-07-06T18:27:58Z</time>
      </trkpt>
      <trkpt lat="45.84049" lon="4.25474">
        <ele>596</ele>
        <time>2018-07-06T18:28:04Z</time>
      </trkpt>
      <trkpt lat="45.84046" lon="4.2547">
        <ele>596</ele>
        <time>2018-07-06T18:28:09Z</time>
      </trkpt>
      <trkpt lat="45.84042" lon="4.25461">
        <ele>595</ele>
        <time>2018-07-06T18:28:14Z</time>
      </trkpt>
      <trkpt lat="45.84038" lon="4.25453">
        <ele>595</ele>
        <time>2018-07-06T18:28:19Z</time>
      </trkpt>
      <trkpt lat="45.84034" lon="4.25447">
        <ele>595</ele>
        <time>2018-07-06T18:28:25Z</time>
      </trkpt>
      <trkpt lat="45.84031" lon="4.2544">
        <ele>594</ele>
        <time>2018-07-06T18:28:30Z</time>
      </trkpt>
      <trkpt lat="45.84028" lon="4.25433">
        <ele>594</ele>
        <time>2018-07-06T18:28:35Z</time>
      </trkpt>
      <trkpt lat="45.84024" lon="4.25424">
        <ele>593</ele>
        <time>2018-07-06T18:28:40Z</time>
      </trkpt>
      <trkpt lat="45.8402" lon="4.25419">
        <ele>593</ele>
        <time>2018-07-06T18:28:45Z</time>
      </trkpt>
      <trkpt lat="45.84017" lon="4.25414">
        <ele>591</ele>
        <time>2018-07-06T18:28:51Z</time>
      </trkpt>
      <trkpt lat="45.84014" lon="4.25408">
        <ele>591</ele>
        <time>2018-07-06T18:28:57Z</time>
      </trkpt>
      <trkpt lat="45.84009" lon="4.25402">
        <ele>591</ele>
        <time>2018-07-06T18:29:02Z</time>
      </trkpt>
      <trkpt lat="45.84005" lon="4.25399">
        <ele>591</ele>
        <time>2018-07-06T18:29:07Z</time>
      </trkpt>
      <trkpt lat="45.84002" lon="4.25392">
        <ele>591</ele>
        <time>2018-07-06T18:29:13Z</time>
      </trkpt>
      <trkpt lat="45.83999" lon="4.25385">
        <ele>587</ele>
        <time>2018-07-06T18:29:19Z</time>
      </trkpt>
      <trkpt lat="45.83998" lon="4.25384">
        <ele>587</ele>
        <time>2018-07-06T18:29:24Z</time>
      </trkpt>
      <trkpt lat="45.83992" lon="4.25379">
        <ele>587</ele>
        <time>2018-07-06T18:29:30Z</time>
      </trkpt>
      <trkpt lat="45.8399" lon="4.25373">
        <ele>586</ele>
        <time>2018-07-06T18:29:36Z</time>
      </trkpt>
      <trkpt lat="45.8399" lon="4.25371">
        <ele>586</ele>
        <time>2018-07-06T18:29:42Z</time>
      </trkpt>
      <trkpt lat="45.8399" lon="4.25371">
        <ele>586</ele>
        <time>2018-07-06T18:29:47Z</time>
      </trkpt>
      <trkpt lat="45.83989" lon="4.25372">
        <ele>586</ele>
        <time>2018-07-06T18:29:53Z</time>
      </trkpt>
      <trkpt lat="45.83989" lon="4.25372">
        <ele>586</ele>
        <time>2018-07-06T18:29:58Z</time>
      </trkpt>
      <trkpt lat="45.83991" lon="4.25378">
        <ele>587</ele>
        <time>2018-07-06T18:30:03Z</time>
      </trkpt>
      <trkpt lat="45.83991" lon="4.25378">
        <ele>587</ele>
        <time>2018-07-06T18:30:09Z</time>
      </trkpt>
      <trkpt lat="45.83989" lon="4.25377">
        <ele>586</ele>
        <time>2018-07-06T18:30:15Z</time>
      </trkpt>
      <trkpt lat="45.83988" lon="4.25374">
        <ele>586</ele>
        <time>2018-07-06T18:30:21Z</time>
      </trkpt>
      <trkpt lat="45.83989" lon="4.25375">
        <ele>586</ele>
        <time>2018-07-06T18:30:26Z</time>
      </trkpt>
      <trkpt lat="45.83988" lon="4.25376">
        <ele>586</ele>
        <time>2018-07-06T18:30:31Z</time>
      </trkpt>
      <trkpt lat="45.83988" lon="4.25377">
        <ele>586</ele>
        <time>2018-07-06T18:30:37Z</time>
      </trkpt>
      <trkpt lat="45.83987" lon="4.25375">
        <ele>586</ele>
        <time>2018-07-06T18:30:42Z</time>
      </trkpt>
      <trkpt lat="45.83987" lon="4.25376">
        <ele>586</ele>
        <time>2018-07-06T18:30:48Z</time>
      </trkpt>
      <trkpt lat="45.83986" lon="4.25376">
        <ele>586</ele>
        <time>2018-07-06T18:30:53Z</time>
      </trkpt>
      <trkpt lat="45.83985" lon="4.25375">
        <ele>586</ele>
        <time>2018-07-06T18:30:59Z</time>
      </trkpt>
      <trkpt lat="45.83983" lon="4.25375">
        <ele>586</ele>
        <time>2018-07-06T18:31:05Z</time>
      </trkpt>
      <trkpt lat="45.83983" lon="4.25374">
        <ele>586</ele>
        <time>2018-07-06T18:31:10Z</time>
      </trkpt>
      <trkpt lat="45.83982" lon="4.25374">
        <ele>586</ele>
        <time>2018-07-06T18:31:16Z</time>
      </trkpt>
      <trkpt lat="45.83982" lon="4.25375">
        <ele>586</ele>
        <time>2018-07-06T18:31:21Z</time>
      </trkpt>
      <trkpt lat="45.83982" lon="4.25376">
        <ele>586</ele>
        <time>2018-07-06T18:31:26Z</time>
      </trkpt>
      <trkpt lat="45.83981" lon="4.25376">
        <ele>586</ele>
        <time>2018-07-06T18:31:32Z</time>
      </trkpt>
      <trkpt lat="45.8398" lon="4.25376">
        <ele>586</ele>
        <time>2018-07-06T18:31:38Z</time>
      </trkpt>
      <trkpt lat="45.8398" lon="4.25376">
        <ele>586</ele>
        <time>2018-07-06T18:31:43Z</time>
      </trkpt>
      <trkpt lat="45.8398" lon="4.25377">
        <ele>586</ele>
        <time>2018-07-06T18:31:49Z</time>
      </trkpt>
      <trkpt lat="45.83982" lon="4.25375">
        <ele>586</ele>
        <time>2018-07-06T18:31:55Z</time>
      </trkpt>
      <trkpt lat="45.83986" lon="4.25375">
        <ele>586</ele>
        <time>2018-07-06T18:32:01Z</time>
      </trkpt>
      <trkpt lat="45.83988" lon="4.25375">
        <ele>586</ele>
        <time>2018-07-06T18:32:07Z</time>
      </trkpt>
      <trkpt lat="45.83989" lon="4.25372">
        <ele>586</ele>
        <time>2018-07-06T18:32:12Z</time>
      </trkpt>
      <trkpt lat="45.83986" lon="4.25366">
        <ele>586</ele>
        <time>2018-07-06T18:32:18Z</time>
      </trkpt>
      <trkpt lat="45.8398" lon="4.25357">
        <ele>586</ele>
        <time>2018-07-06T18:32:24Z</time>
      </trkpt>
      <trkpt lat="45.83976" lon="4.25349">
        <ele>586</ele>
        <time>2018-07-06T18:32:29Z</time>
      </trkpt>
      <trkpt lat="45.83972" lon="4.25339">
        <ele>586</ele>
        <time>2018-07-06T18:32:35Z</time>
      </trkpt>
      <trkpt lat="45.83968" lon="4.25329">
        <ele>585</ele>
        <time>2018-07-06T18:32:40Z</time>
      </trkpt>
      <trkpt lat="45.83966" lon="4.25322">
        <ele>584</ele>
        <time>2018-07-06T18:32:45Z</time>
      </trkpt>
      <trkpt lat="45.83962" lon="4.25312">
        <ele>584</ele>
        <time>2018-07-06T18:32:51Z</time>
      </trkpt>
      <trkpt lat="45.83959" lon="4.25303">
        <ele>584</ele>
        <time>2018-07-06T18:32:57Z</time>
      </trkpt>
      <trkpt lat="45.83957" lon="4.25295">
        <ele>584</ele>
        <time>2018-07-06T18:33:02Z</time>
      </trkpt>
      <trkpt lat="45.83955" lon="4.25288">
        <ele>583</ele>
        <time>2018-07-06T18:33:07Z</time>
      </trkpt>
      <trkpt lat="45.83953" lon="4.25281">
        <ele>583</ele>
        <time>2018-07-06T18:33:13Z</time>
      </trkpt>
      <trkpt lat="45.83949" lon="4.25273">
        <ele>583</ele>
        <time>2018-07-06T18:33:18Z</time>
      </trkpt>
      <trkpt lat="45.83948" lon="4.25265">
        <ele>583</ele>
        <time>2018-07-06T18:33:23Z</time>
      </trkpt>
      <trkpt lat="45.83946" lon="4.25256">
        <ele>582</ele>
        <time>2018-07-06T18:33:29Z</time>
      </trkpt>
      <trkpt lat="45.83942" lon="4.25247">
        <ele>581</ele>
        <time>2018-07-06T18:33:35Z</time>
      </trkpt>
      <trkpt lat="45.83941" lon="4.25241">
        <ele>581</ele>
        <time>2018-07-06T18:33:41Z</time>
      </trkpt>
      <trkpt lat="45.8394" lon="4.25233">
        <ele>581</ele>
        <time>2018-07-06T18:33:47Z</time>
      </trkpt>
      <trkpt lat="45.8394" lon="4.25225">
        <ele>581</ele>
        <time>2018-07-06T18:33:52Z</time>
      </trkpt>
      <trkpt lat="45.83939" lon="4.25216">
        <ele>581</ele>
        <time>2018-07-06T18:33:58Z</time>
      </trkpt>
      <trkpt lat="45.83939" lon="4.25208">
        <ele>581</ele>
        <time>2018-07-06T18:34:04Z</time>
      </trkpt>
      <trkpt lat="45.83938" lon="4.252">
        <ele>581</ele>
        <time>2018-07-06T18:34:09Z</time>
      </trkpt>
      <trkpt lat="45.83938" lon="4.25193">
        <ele>581</ele>
        <time>2018-07-06T18:34:14Z</time>
      </trkpt>
      <trkpt lat="45.83939" lon="4.25186">
        <ele>581</ele>
        <time>2018-07-06T18:34:20Z</time>
      </trkpt>
      <trkpt lat="45.83938" lon="4.25179">
        <ele>581</ele>
        <time>2018-07-06T18:34:25Z</time>
      </trkpt>
      <trkpt lat="45.83937" lon="4.25168">
        <ele>580</ele>
        <time>2018-07-06T18:34:31Z</time>
      </trkpt>
      <trkpt lat="45.83937" lon="4.25159">
        <ele>581</ele>
        <time>2018-07-06T18:34:37Z</time>
      </trkpt>
      <trkpt lat="45.83936" lon="4.25151">
        <ele>582</ele>
        <time>2018-07-06T18:34:43Z</time>
      </trkpt>
      <trkpt lat="45.83936" lon="4.25142">
        <ele>582</ele>
        <time>2018-07-06T18:34:49Z</time>
      </trkpt>
      <trkpt lat="45.83938" lon="4.25134">
        <ele>582</ele>
        <time>2018-07-06T18:34:55Z</time>
      </trkpt>
      <trkpt lat="45.83938" lon="4.25127">
        <ele>583</ele>
        <time>2018-07-06T18:35:00Z</time>
      </trkpt>
      <trkpt lat="45.83936" lon="4.25117">
        <ele>583</ele>
        <time>2018-07-06T18:35:06Z</time>
      </trkpt>
      <trkpt lat="45.83934" lon="4.25111">
        <ele>583</ele>
        <time>2018-07-06T18:35:11Z</time>
      </trkpt>
      <trkpt lat="45.83932" lon="4.25107">
        <ele>583</ele>
        <time>2018-07-06T18:35:16Z</time>
      </trkpt>
      <trkpt lat="45.83928" lon="4.251">
        <ele>583</ele>
        <time>2018-07-06T18:35:22Z</time>
      </trkpt>
      <trkpt lat="45.83925" lon="4.25094">
        <ele>583</ele>
        <time>2018-07-06T18:35:27Z</time>
      </trkpt>
      <trkpt lat="45.83921" lon="4.25091">
        <ele>583</ele>
        <time>2018-07-06T18:35:33Z</time>
      </trkpt>
      <trkpt lat="45.83917" lon="4.25086">
        <ele>583</ele>
        <time>2018-07-06T18:35:38Z</time>
      </trkpt>
      <trkpt lat="45.83911" lon="4.25081">
        <ele>583</ele>
        <time>2018-07-06T18:35:44Z</time>
      </trkpt>
      <trkpt lat="45.83907" lon="4.25076">
        <ele>583</ele>
        <time>2018-07-06T18:35:50Z</time>
      </trkpt>
      <trkpt lat="45.83901" lon="4.2507">
        <ele>582</ele>
        <time>2018-07-06T18:35:56Z</time>
      </trkpt>
      <trkpt lat="45.83897" lon="4.25064">
        <ele>582</ele>
        <time>2018-07-06T18:36:02Z</time>
      </trkpt>
      <trkpt lat="45.83894" lon="4.25058">
        <ele>582</ele>
        <time>2018-07-06T18:36:07Z</time>
      </trkpt>
      <trkpt lat="45.83889" lon="4.25055">
        <ele>582</ele>
        <time>2018-07-06T18:36:13Z</time>
      </trkpt>
      <trkpt lat="45.83887" lon="4.25051">
        <ele>582</ele>
        <time>2018-07-06T18:36:18Z</time>
      </trkpt>
      <trkpt lat="45.83883" lon="4.25047">
        <ele>582</ele>
        <time>2018-07-06T18:36:24Z</time>
      </trkpt>
      <trkpt lat="45.83878" lon="4.25042">
        <ele>582</ele>
        <time>2018-07-06T18:36:29Z</time>
      </trkpt>
      <trkpt lat="45.83872" lon="4.25036">
        <ele>582</ele>
        <time>2018-07-06T18:36:35Z</time>
      </trkpt>
      <trkpt lat="45.83869" lon="4.25031">
        <ele>582</ele>
        <time>2018-07-06T18:36:40Z</time>
      </trkpt>
      <trkpt lat="45.83864" lon="4.25026">
        <ele>582</ele>
        <time>2018-07-06T18:36:46Z</time>
      </trkpt>
      <trkpt lat="45.83861" lon="4.25023">
        <ele>582</ele>
        <time>2018-07-06T18:36:51Z</time>
      </trkpt>
      <trkpt lat="45.83855" lon="4.25017">
        <ele>582</ele>
        <time>2018-07-06T18:36:57Z</time>
      </trkpt>
      <trkpt lat="45.83851" lon="4.25012">
        <ele>582</ele>
        <time>2018-07-06T18:37:03Z</time>
      </trkpt>
      <trkpt lat="45.83846" lon="4.25005">
        <ele>581</ele>
        <time>2018-07-06T18:37:09Z</time>
      </trkpt>
      <trkpt lat="45.83843" lon="4.24998">
        <ele>582</ele>
        <time>2018-07-06T18:37:14Z</time>
      </trkpt>
      <trkpt lat="45.8384" lon="4.24993">
        <ele>582</ele>
        <time>2018-07-06T18:37:20Z</time>
      </trkpt>
      <trkpt lat="45.83838" lon="4.24987">
        <ele>582</ele>
        <time>2018-07-06T18:37:25Z</time>
      </trkpt>
      <trkpt lat="45.83836" lon="4.2498">
        <ele>582</ele>
        <time>2018-07-06T18:37:31Z</time>
      </trkpt>
      <trkpt lat="45.83835" lon="4.24977">
        <ele>582</ele>
        <time>2018-07-06T18:37:36Z</time>
      </trkpt>
      <trkpt lat="45.83831" lon="4.24968">
        <ele>576</ele>
        <time>2018-07-06T18:37:42Z</time>
      </trkpt>
      <trkpt lat="45.83826" lon="4.2496">
        <ele>575</ele>
        <time>2018-07-06T18:37:47Z</time>
      </trkpt>
      <trkpt lat="45.83825" lon="4.24954">
        <ele>575</ele>
        <time>2018-07-06T18:37:53Z</time>
      </trkpt>
      <trkpt lat="45.83823" lon="4.24948">
        <ele>575</ele>
        <time>2018-07-06T18:37:58Z</time>
      </trkpt>
      <trkpt lat="45.83822" lon="4.24941">
        <ele>576</ele>
        <time>2018-07-06T18:38:03Z</time>
      </trkpt>
      <trkpt lat="45.83818" lon="4.24931">
        <ele>576</ele>
        <time>2018-07-06T18:38:09Z</time>
      </trkpt>
      <trkpt lat="45.83816" lon="4.24926">
        <ele>576</ele>
        <time>2018-07-06T18:38:14Z</time>
      </trkpt>
      <trkpt lat="45.83814" lon="4.24917">
        <ele>575</ele>
        <time>2018-07-06T18:38:20Z</time>
      </trkpt>
      <trkpt lat="45.83813" lon="4.24909">
        <ele>575</ele>
        <time>2018-07-06T18:38:25Z</time>
      </trkpt>
      <trkpt lat="45.83812" lon="4.24902">
        <ele>574</ele>
        <time>2018-07-06T18:38:30Z</time>
      </trkpt>
      <trkpt lat="45.83811" lon="4.24897">
        <ele>574</ele>
        <time>2018-07-06T18:38:35Z</time>
      </trkpt>
      <trkpt lat="45.8381" lon="4.2489">
        <ele>573</ele>
        <time>2018-07-06T18:38:41Z</time>
      </trkpt>
      <trkpt lat="45.8381" lon="4.24881">
        <ele>573</ele>
        <time>2018-07-06T18:38:46Z</time>
      </trkpt>
      <trkpt lat="45.83808" lon="4.24873">
        <ele>573</ele>
        <time>2018-07-06T18:38:51Z</time>
      </trkpt>
      <trkpt lat="45.83805" lon="4.24866">
        <ele>573</ele>
        <time>2018-07-06T18:38:57Z</time>
      </trkpt>
      <trkpt lat="45.83803" lon="4.24858">
        <ele>572</ele>
        <time>2018-07-06T18:39:03Z</time>
      </trkpt>
      <trkpt lat="45.83801" lon="4.24853">
        <ele>572</ele>
        <time>2018-07-06T18:39:08Z</time>
      </trkpt>
      <trkpt lat="45.83798" lon="4.24846">
        <ele>572</ele>
        <time>2018-07-06T18:39:14Z</time>
      </trkpt>
      <trkpt lat="45.83794" lon="4.24839">
        <ele>572</ele>
        <time>2018-07-06T18:39:20Z</time>
      </trkpt>
      <trkpt lat="45.8379" lon="4.2483">
        <ele>571</ele>
        <time>2018-07-06T18:39:26Z</time>
      </trkpt>
      <trkpt lat="45.83788" lon="4.24823">
        <ele>571</ele>
        <time>2018-07-06T18:39:31Z</time>
      </trkpt>
      <trkpt lat="45.83786" lon="4.24817">
        <ele>570</ele>
        <time>2018-07-06T18:39:37Z</time>
      </trkpt>
      <trkpt lat="45.83783" lon="4.24809">
        <ele>570</ele>
        <time>2018-07-06T18:39:42Z</time>
      </trkpt>
      <trkpt lat="45.83779" lon="4.24804">
        <ele>570</ele>
        <time>2018-07-06T18:39:47Z</time>
      </trkpt>
      <trkpt lat="45.83776" lon="4.24797">
        <ele>570</ele>
        <time>2018-07-06T18:39:53Z</time>
      </trkpt>
      <trkpt lat="45.83775" lon="4.24791">
        <ele>570</ele>
        <time>2018-07-06T18:39:58Z</time>
      </trkpt>
      <trkpt lat="45.83772" lon="4.24781">
        <ele>570</ele>
        <time>2018-07-06T18:40:04Z</time>
      </trkpt>
      <trkpt lat="45.8377" lon="4.24777">
        <ele>569</ele>
        <time>2018-07-06T18:40:09Z</time>
      </trkpt>
      <trkpt lat="45.83768" lon="4.24769">
        <ele>569</ele>
        <time>2018-07-06T18:40:14Z</time>
      </trkpt>
      <trkpt lat="45.83765" lon="4.24763">
        <ele>568</ele>
        <time>2018-07-06T18:40:20Z</time>
      </trkpt>
      <trkpt lat="45.83763" lon="4.24757">
        <ele>568</ele>
        <time>2018-07-06T18:40:25Z</time>
      </trkpt>
      <trkpt lat="45.8376" lon="4.2475">
        <ele>567</ele>
        <time>2018-07-06T18:40:31Z</time>
      </trkpt>
      <trkpt lat="45.83758" lon="4.24745">
        <ele>566</ele>
        <time>2018-07-06T18:40:36Z</time>
      </trkpt>
      <trkpt lat="45.83758" lon="4.24738">
        <ele>567</ele>
        <time>2018-07-06T18:40:42Z</time>
      </trkpt>
      <trkpt lat="45.83756" lon="4.24734">
        <ele>567</ele>
        <time>2018-07-06T18:40:47Z</time>
      </trkpt>
      <trkpt lat="45.83754" lon="4.24724">
        <ele>567</ele>
        <time>2018-07-06T18:40:53Z</time>
      </trkpt>
      <trkpt lat="45.83752" lon="4.24716">
        <ele>567</ele>
        <time>2018-07-06T18:40:59Z</time>
      </trkpt>
      <trkpt lat="45.8375" lon="4.24713">
        <ele>567</ele>
        <time>2018-07-06T18:41:04Z</time>
      </trkpt>
      <trkpt lat="45.83749" lon="4.24707">
        <ele>559</ele>
        <time>2018-07-06T18:41:09Z</time>
      </trkpt>
      <trkpt lat="45.83747" lon="4.247">
        <ele>559</ele>
        <time>2018-07-06T18:41:15Z</time>
      </trkpt>
      <trkpt lat="45.83745" lon="4.24694">
        <ele>559</ele>
        <time>2018-07-06T18:41:20Z</time>
      </trkpt>
      <trkpt lat="45.83743" lon="4.24686">
        <ele>559</ele>
        <time>2018-07-06T18:41:26Z</time>
      </trkpt>
      <trkpt lat="45.83741" lon="4.24679">
        <ele>559</ele>
        <time>2018-07-06T18:41:32Z</time>
      </trkpt>
      <trkpt lat="45.83738" lon="4.2467">
        <ele>559</ele>
        <time>2018-07-06T18:41:38Z</time>
      </trkpt>
      <trkpt lat="45.83737" lon="4.24664">
        <ele>558</ele>
        <time>2018-07-06T18:41:43Z</time>
      </trkpt>
      <trkpt lat="45.83735" lon="4.24658">
        <ele>557</ele>
        <time>2018-07-06T18:41:49Z</time>
      </trkpt>
      <trkpt lat="45.83735" lon="4.2465">
        <ele>557</ele>
        <time>2018-07-06T18:41:54Z</time>
      </trkpt>
      <trkpt lat="45.83734" lon="4.2464">
        <ele>556</ele>
        <time>2018-07-06T18:42:00Z</time>
      </trkpt>
      <trkpt lat="45.83733" lon="4.24631">
        <ele>555</ele>
        <time>2018-07-06T18:42:06Z</time>
      </trkpt>
      <trkpt lat="45.83732" lon="4.2462">
        <ele>555</ele>
        <time>2018-07-06T18:42:12Z</time>
      </trkpt>
      <trkpt lat="45.83733" lon="4.24611">
        <ele>555</ele>
        <time>2018-07-06T18:42:17Z</time>
      </trkpt>
      <trkpt lat="45.83734" lon="4.24605">
        <ele>555</ele>
        <time>2018-07-06T18:42:23Z</time>
      </trkpt>
      <trkpt lat="45.83732" lon="4.24597">
        <ele>555</ele>
        <time>2018-07-06T18:42:28Z</time>
      </trkpt>
      <trkpt lat="45.83732" lon="4.24589">
        <ele>555</ele>
        <time>2018-07-06T18:42:33Z</time>
      </trkpt>
      <trkpt lat="45.83732" lon="4.24577">
        <ele>553</ele>
        <time>2018-07-06T18:42:39Z</time>
      </trkpt>
      <trkpt lat="45.83734" lon="4.2457">
        <ele>553</ele>
        <time>2018-07-06T18:42:44Z</time>
      </trkpt>
      <trkpt lat="45.83735" lon="4.24562">
        <ele>553</ele>
        <time>2018-07-06T18:42:50Z</time>
      </trkpt>
      <trkpt lat="45.83737" lon="4.24554">
        <ele>553</ele>
        <time>2018-07-06T18:42:55Z</time>
      </trkpt>
      <trkpt lat="45.83738" lon="4.24548">
        <ele>552</ele>
        <time>2018-07-06T18:43:00Z</time>
      </trkpt>
      <trkpt lat="45.83741" lon="4.24538">
        <ele>552</ele>
        <time>2018-07-06T18:43:06Z</time>
      </trkpt>
      <trkpt lat="45.83741" lon="4.24527">
        <ele>552</ele>
        <time>2018-07-06T18:43:12Z</time>
      </trkpt>
      <trkpt lat="45.83744" lon="4.24521">
        <ele>552</ele>
        <time>2018-07-06T18:43:18Z</time>
      </trkpt>
      <trkpt lat="45.83746" lon="4.24515">
        <ele>551</ele>
        <time>2018-07-06T18:43:23Z</time>
      </trkpt>
      <trkpt lat="45.83746" lon="4.24514">
        <ele>551</ele>
        <time>2018-07-06T18:43:28Z</time>
      </trkpt>
      <trkpt lat="45.83746" lon="4.24513">
        <ele>551</ele>
        <time>2018-07-06T18:43:34Z</time>
      </trkpt>
      <trkpt lat="45.83747" lon="4.2451">
        <ele>551</ele>
        <time>2018-07-06T18:43:39Z</time>
      </trkpt>
      <trkpt lat="45.8375" lon="4.24508">
        <ele>551</ele>
        <time>2018-07-06T18:43:45Z</time>
      </trkpt>
      <trkpt lat="45.8375" lon="4.24512">
        <ele>551</ele>
        <time>2018-07-06T18:43:50Z</time>
      </trkpt>
      <trkpt lat="45.83749" lon="4.24514">
        <ele>551</ele>
        <time>2018-07-06T18:43:56Z</time>
      </trkpt>
      <trkpt lat="45.83748" lon="4.24516">
        <ele>551</ele>
        <time>2018-07-06T18:44:02Z</time>
      </trkpt>
      <trkpt lat="45.83749" lon="4.24517">
        <ele>551</ele>
        <time>2018-07-06T18:44:07Z</time>
      </trkpt>
      <trkpt lat="45.83749" lon="4.24517">
        <ele>551</ele>
        <time>2018-07-06T18:44:12Z</time>
      </trkpt>
      <trkpt lat="45.8375" lon="4.24517">
        <ele>551</ele>
        <time>2018-07-06T18:44:18Z</time>
      </trkpt>
      <trkpt lat="45.83749" lon="4.24513">
        <ele>551</ele>
        <time>2018-07-06T18:44:23Z</time>
      </trkpt>
      <trkpt lat="45.8375" lon="4.24512">
        <ele>552</ele>
        <time>2018-07-06T18:44:28Z</time>
      </trkpt>
      <trkpt lat="45.83751" lon="4.24513">
        <ele>552</ele>
        <time>2018-07-06T18:44:34Z</time>
      </trkpt>
      <trkpt lat="45.83753" lon="4.24514">
        <ele>552</ele>
        <time>2018-07-06T18:44:39Z</time>
      </trkpt>
      <trkpt lat="45.83751" lon="4.24519">
        <ele>553</ele>
        <time>2018-07-06T18:44:45Z</time>
      </trkpt>
      <trkpt lat="45.83751" lon="4.24522">
        <ele>553</ele>
        <time>2018-07-06T18:44:51Z</time>
      </trkpt>
      <trkpt lat="45.83752" lon="4.24524">
        <ele>553</ele>
        <time>2018-07-06T18:44:57Z</time>
      </trkpt>
      <trkpt lat="45.83754" lon="4.24531">
        <ele>553</ele>
        <time>2018-07-06T18:45:03Z</time>
      </trkpt>
      <trkpt lat="45.83755" lon="4.24536">
        <ele>554</ele>
        <time>2018-07-06T18:45:09Z</time>
      </trkpt>
      <trkpt lat="45.83757" lon="4.24543">
        <ele>554</ele>
        <time>2018-07-06T18:45:15Z</time>
      </trkpt>
      <trkpt lat="45.83761" lon="4.24548">
        <ele>554</ele>
        <time>2018-07-06T18:45:21Z</time>
      </trkpt>
      <trkpt lat="45.83766" lon="4.24552">
        <ele>555</ele>
        <time>2018-07-06T18:45:26Z</time>
      </trkpt>
      <trkpt lat="45.83771" lon="4.2456">
        <ele>555</ele>
        <time>2018-07-06T18:45:32Z</time>
      </trkpt>
      <trkpt lat="45.83774" lon="4.24565">
        <ele>555</ele>
        <time>2018-07-06T18:45:37Z</time>
      </trkpt>
      <trkpt lat="45.83778" lon="4.24569">
        <ele>555</ele>
        <time>2018-07-06T18:45:42Z</time>
      </trkpt>
      <trkpt lat="45.83782" lon="4.24573">
        <ele>555</ele>
        <time>2018-07-06T18:45:48Z</time>
      </trkpt>
      <trkpt lat="45.83784" lon="4.24575">
        <ele>556</ele>
        <time>2018-07-06T18:45:54Z</time>
      </trkpt>
      <trkpt lat="45.83785" lon="4.24577">
        <ele>556</ele>
        <time>2018-07-06T18:46:00Z</time>
      </trkpt>
      <trkpt lat="45.83789" lon="4.24581">
        <ele>556</ele>
        <time>2018-07-06T18:46:06Z</time>
      </trkpt>
      <trkpt lat="45.83792" lon="4.24588">
        <ele>561</ele>
        <time>2018-07-06T18:46:11Z</time>
      </trkpt>
      <trkpt lat="45.83797" lon="4.24592">
        <ele>562</ele>
        <time>2018-07-06T18:46:17Z</time>
      </trkpt>
      <trkpt lat="45.83802" lon="4.24595">
        <ele>562</ele>
        <time>2018-07-06T18:46:22Z</time>
      </trkpt>
      <trkpt lat="45.83808" lon="4.24601">
        <ele>562</ele>
        <time>2018-07-06T18:46:27Z</time>
      </trkpt>
      <trkpt lat="45.83812" lon="4.24603">
        <ele>562</ele>
        <time>2018-07-06T18:46:33Z</time>
      </trkpt>
      <trkpt lat="45.83815" lon="4.24605">
        <ele>563</ele>
        <time>2018-07-06T18:46:39Z</time>
      </trkpt>
      <trkpt lat="45.83819" lon="4.24608">
        <ele>563</ele>
        <time>2018-07-06T18:46:44Z</time>
      </trkpt>
      <trkpt lat="45.83823" lon="4.24612">
        <ele>563</ele>
        <time>2018-07-06T18:46:50Z</time>
      </trkpt>
      <trkpt lat="45.83827" lon="4.24616">
        <ele>563</ele>
        <time>2018-07-06T18:46:56Z</time>
      </trkpt>
      <trkpt lat="45.83832" lon="4.24619">
        <ele>564</ele>
        <time>2018-07-06T18:47:01Z</time>
      </trkpt>
      <trkpt lat="45.83838" lon="4.24621">
        <ele>564</ele>
        <time>2018-07-06T18:47:07Z</time>
      </trkpt>
      <trkpt lat="45.83843" lon="4.24624">
        <ele>565</ele>
        <time>2018-07-06T18:47:12Z</time>
      </trkpt>
      <trkpt lat="45.83848" lon="4.24627">
        <ele>565</ele>
        <time>2018-07-06T18:47:18Z</time>
      </trkpt>
      <trkpt lat="45.83854" lon="4.2463">
        <ele>565</ele>
        <time>2018-07-06T18:47:23Z</time>
      </trkpt>
      <trkpt lat="45.83859" lon="4.24632">
        <ele>565</ele>
        <time>2018-07-06T18:47:29Z</time>
      </trkpt>
      <trkpt lat="45.83865" lon="4.24636">
        <ele>565</ele>
        <time>2018-07-06T18:47:35Z</time>
      </trkpt>
      <trkpt lat="45.83868" lon="4.2464">
        <ele>565</ele>
        <time>2018-07-06T18:47:40Z</time>
      </trkpt>
      <trkpt lat="45.83874" lon="4.24643">
        <ele>565</ele>
        <time>2018-07-06T18:47:46Z</time>
      </trkpt>
      <trkpt lat="45.83879" lon="4.24647">
        <ele>565</ele>
        <time>2018-07-06T18:47:52Z</time>
      </trkpt>
      <trkpt lat="45.83886" lon="4.24651">
        <ele>565</ele>
        <time>2018-07-06T18:47:58Z</time>
      </trkpt>
      <trkpt lat="45.8389" lon="4.24653">
        <ele>565</ele>
        <time>2018-07-06T18:48:03Z</time>
      </trkpt>
      <trkpt lat="45.83895" lon="4.24657">
        <ele>565</ele>
        <time>2018-07-06T18:48:09Z</time>
      </trkpt>
      <trkpt lat="45.839" lon="4.24658">
        <ele>565</ele>
        <time>2018-07-06T18:48:14Z</time>
      </trkpt>
      <trkpt lat="45.83909" lon="4.24663">
        <ele>566</ele>
        <time>2018-07-06T18:48:20Z</time>
      </trkpt>
      <trkpt lat="45.83914" lon="4.24668">
        <ele>568</ele>
        <time>2018-07-06T18:48:25Z</time>
      </trkpt>
      <trkpt lat="45.83918" lon="4.24671">
        <ele>567</ele>
        <time>2018-07-06T18:48:30Z</time>
      </trkpt>
      <trkpt lat="45.83921" lon="4.24673">
        <ele>566</ele>
        <time>2018-07-06T18:48:35Z</time>
      </trkpt>
      <trkpt lat="45.83925" lon="4.24675">
        <ele>566</ele>
        <time>2018-07-06T18:48:41Z</time>
      </trkpt>
      <trkpt lat="45.83932" lon="4.24679">
        <ele>565</ele>
        <time>2018-07-06T18:48:46Z</time>
      </trkpt>
      <trkpt lat="45.83937" lon="4.24681">
        <ele>565</ele>
        <time>2018-07-06T18:48:51Z</time>
      </trkpt>
      <trkpt lat="45.8394" lon="4.24684">
        <ele>565</ele>
        <time>2018-07-06T18:48:56Z</time>
      </trkpt>
      <trkpt lat="45.83945" lon="4.24691">
        <ele>565</ele>
        <time>2018-07-06T18:49:02Z</time>
      </trkpt>
      <trkpt lat="45.83952" lon="4.24698">
        <ele>564</ele>
        <time>2018-07-06T18:49:08Z</time>
      </trkpt>
      <trkpt lat="45.83956" lon="4.24702">
        <ele>564</ele>
        <time>2018-07-06T18:49:14Z</time>
      </trkpt>
      <trkpt lat="45.83963" lon="4.24708">
        <ele>564</ele>
        <time>2018-07-06T18:49:20Z</time>
      </trkpt>
      <trkpt lat="45.8397" lon="4.24713">
        <ele>564</ele>
        <time>2018-07-06T18:49:26Z</time>
      </trkpt>
      <trkpt lat="45.83974" lon="4.24716">
        <ele>564</ele>
        <time>2018-07-06T18:49:31Z</time>
      </trkpt>
      <trkpt lat="45.8398" lon="4.2472">
        <ele>564</ele>
        <time>2018-07-06T18:49:37Z</time>
      </trkpt>
      <trkpt lat="45.83985" lon="4.24723">
        <ele>564</ele>
        <time>2018-07-06T18:49:42Z</time>
      </trkpt>
      <trkpt lat="45.8399" lon="4.24727">
        <ele>563</ele>
        <time>2018-07-06T18:49:48Z</time>
      </trkpt>
      <trkpt lat="45.83995" lon="4.24732">
        <ele>563</ele>
        <time>2018-07-06T18:49:53Z</time>
      </trkpt>
      <trkpt lat="45.83997" lon="4.24735">
        <ele>563</ele>
        <time>2018-07-06T18:49:58Z</time>
      </trkpt>
      <trkpt lat="45.83997" lon="4.2474">
        <ele>563</ele>
        <time>2018-07-06T18:50:04Z</time>
      </trkpt>
      <trkpt lat="45.83999" lon="4.24748">
        <ele>563</ele>
        <time>2018-07-06T18:50:10Z</time>
      </trkpt>
      <trkpt lat="45.84" lon="4.24757">
        <ele>565</ele>
        <time>2018-07-06T18:50:15Z</time>
      </trkpt>
      <trkpt lat="45.84" lon="4.24763">
        <ele>561</ele>
        <time>2018-07-06T18:50:21Z</time>
      </trkpt>
      <trkpt lat="45.84003" lon="4.24767">
        <ele>561</ele>
        <time>2018-07-06T18:50:26Z</time>
      </trkpt>
      <trkpt lat="45.84007" lon="4.24775">
        <ele>561</ele>
        <time>2018-07-06T18:50:32Z</time>
      </trkpt>
      <trkpt lat="45.8401" lon="4.24779">
        <ele>561</ele>
        <time>2018-07-06T18:50:37Z</time>
      </trkpt>
      <trkpt lat="45.84013" lon="4.24788">
        <ele>561</ele>
        <time>2018-07-06T18:50:42Z</time>
      </trkpt>
      <trkpt lat="45.84015" lon="4.24793">
        <ele>561</ele>
        <time>2018-07-06T18:50:47Z</time>
      </trkpt>
      <trkpt lat="45.84017" lon="4.24796">
        <ele>561</ele>
        <time>2018-07-06T18:50:52Z</time>
      </trkpt>
      <trkpt lat="45.84018" lon="4.24799">
        <ele>561</ele>
        <time>2018-07-06T18:50:57Z</time>
      </trkpt>
      <trkpt lat="45.8402" lon="4.24802">
        <ele>561</ele>
        <time>2018-07-06T18:51:03Z</time>
      </trkpt>
      <trkpt lat="45.84023" lon="4.24812">
        <ele>562</ele>
        <time>2018-07-06T18:51:09Z</time>
      </trkpt>
      <trkpt lat="45.84028" lon="4.2482">
        <ele>562</ele>
        <time>2018-07-06T18:51:15Z</time>
      </trkpt>
      <trkpt lat="45.84033" lon="4.24825">
        <ele>561</ele>
        <time>2018-07-06T18:51:21Z</time>
      </trkpt>
      <trkpt lat="45.84037" lon="4.24829">
        <ele>561</ele>
        <time>2018-07-06T18:51:26Z</time>
      </trkpt>
      <trkpt lat="45.84042" lon="4.24836">
        <ele>566</ele>
        <time>2018-07-06T18:51:32Z</time>
      </trkpt>
      <trkpt lat="45.84042" lon="4.24838">
        <ele>566</ele>
        <time>2018-07-06T18:51:37Z</time>
      </trkpt>
      <trkpt lat="45.84045" lon="4.24845">
        <ele>565</ele>
        <time>2018-07-06T18:51:43Z</time>
      </trkpt>
      <trkpt lat="45.84048" lon="4.24852">
        <ele>565</ele>
        <time>2018-07-06T18:51:49Z</time>
      </trkpt>
      <trkpt lat="45.8405" lon="4.24856">
        <ele>565</ele>
        <time>2018-07-06T18:51:55Z</time>
      </trkpt>
      <trkpt lat="45.84055" lon="4.2486">
        <ele>565</ele>
        <time>2018-07-06T18:52:00Z</time>
      </trkpt>
      <trkpt lat="45.84063" lon="4.24867">
        <ele>565</ele>
        <time>2018-07-06T18:52:06Z</time>
      </trkpt>
      <trkpt lat="45.84068" lon="4.24871">
        <ele>565</ele>
        <time>2018-07-06T18:52:12Z</time>
      </trkpt>
      <trkpt lat="45.84074" lon="4.24875">
        <ele>565</ele>
        <time>2018-07-06T18:52:17Z</time>
      </trkpt>
      <trkpt lat="45.84079" lon="4.24875">
        <ele>565</ele>
        <time>2018-07-06T18:52:23Z</time>
      </trkpt>
      <trkpt lat="45.84083" lon="4.24877">
        <ele>565</ele>
        <time>2018-07-06T18:52:28Z</time>
      </trkpt>
      <trkpt lat="45.84093" lon="4.24879">
        <ele>557</ele>
        <time>2018-07-06T18:52:33Z</time>
      </trkpt>
      <trkpt lat="45.84101" lon="4.24873">
        <ele>556</ele>
        <time>2018-07-06T18:52:39Z</time>
      </trkpt>
      <trkpt lat="45.84106" lon="4.24874">
        <ele>556</ele>
        <time>2018-07-06T18:52:44Z</time>
      </trkpt>
      <trkpt lat="45.8411" lon="4.24873">
        <ele>556</ele>
        <time>2018-07-06T18:52:50Z</time>
      </trkpt>
      <trkpt lat="45.84114" lon="4.24874">
        <ele>556</ele>
        <time>2018-07-06T18:52:55Z</time>
      </trkpt>
      <trkpt lat="45.84119" lon="4.24877">
        <ele>555</ele>
        <time>2018-07-06T18:53:01Z</time>
      </trkpt>
      <trkpt lat="45.84123" lon="4.24879">
        <ele>555</ele>
        <time>2018-07-06T18:53:07Z</time>
      </trkpt>
      <trkpt lat="45.84127" lon="4.24881">
        <ele>555</ele>
        <time>2018-07-06T18:53:13Z</time>
      </trkpt>
      <trkpt lat="45.84136" lon="4.2488">
        <ele>555</ele>
        <time>2018-07-06T18:53:19Z</time>
      </trkpt>
      <trkpt lat="45.84142" lon="4.24879">
        <ele>554</ele>
        <time>2018-07-06T18:53:25Z</time>
      </trkpt>
      <trkpt lat="45.84147" lon="4.24881">
        <ele>554</ele>
        <time>2018-07-06T18:53:31Z</time>
      </trkpt>
      <trkpt lat="45.84154" lon="4.24879">
        <ele>554</ele>
        <time>2018-07-06T18:53:37Z</time>
      </trkpt>
      <trkpt lat="45.84159" lon="4.24878">
        <ele>554</ele>
        <time>2018-07-06T18:53:42Z</time>
      </trkpt>
      <trkpt lat="45.84166" lon="4.24876">
        <ele>553</ele>
        <time>2018-07-06T18:53:48Z</time>
      </trkpt>
      <trkpt lat="45.84173" lon="4.24872">
        <ele>542</ele>
        <time>2018-07-06T18:53:54Z</time>
      </trkpt>
      <trkpt lat="45.84176" lon="4.2487">
        <ele>541</ele>
        <time>2018-07-06T18:54:00Z</time>
      </trkpt>
      <trkpt lat="45.84181" lon="4.24868">
        <ele>541</ele>
        <time>2018-07-06T18:54:06Z</time>
      </trkpt>
      <trkpt lat="45.84185" lon="4.24867">
        <ele>540</ele>
        <time>2018-07-06T18:54:11Z</time>
      </trkpt>
      <trkpt lat="45.84188" lon="4.24869">
        <ele>540</ele>
        <time>2018-07-06T18:54:16Z</time>
      </trkpt>
      <trkpt lat="45.84193" lon="4.24871">
        <ele>540</ele>
        <time>2018-07-06T18:54:21Z</time>
      </trkpt>
      <trkpt lat="45.842" lon="4.24872">
        <ele>539</ele>
        <time>2018-07-06T18:54:27Z</time>
      </trkpt>
      <trkpt lat="45.84202" lon="4.24877">
        <ele>539</ele>
        <time>2018-07-06T18:54:33Z</time>
      </trkpt>
      <trkpt lat="45.84204" lon="4.24884">
        <ele>539</ele>
        <time>2018-07-06T18:54:39Z</time>
      </trkpt>
      <trkpt lat="45.84205" lon="4.24892">
        <ele>539</ele>
        <time>2018-07-06T18:54:44Z</time>
      </trkpt>
      <trkpt lat="45.84205" lon="4.24902">
        <ele>539</ele>
        <time>2018-07-06T18:54:50Z</time>
      </trkpt>
      <trkpt lat="45.84205" lon="4.24909">
        <ele>540</ele>
        <time>2018-07-06T18:54:55Z</time>
      </trkpt>
      <trkpt lat="45.84204" lon="4.24922">
        <ele>541</ele>
        <time>2018-07-06T18:55:01Z</time>
      </trkpt>
      <trkpt lat="45.84205" lon="4.24931">
        <ele>541</ele>
        <time>2018-07-06T18:55:06Z</time>
      </trkpt>
      <trkpt lat="45.84206" lon="4.24944">
        <ele>540</ele>
        <time>2018-07-06T18:55:12Z</time>
      </trkpt>
      <trkpt lat="45.84207" lon="4.24953">
        <ele>540</ele>
        <time>2018-07-06T18:55:18Z</time>
      </trkpt>
      <trkpt lat="45.84207" lon="4.2496">
        <ele>540</ele>
        <time>2018-07-06T18:55:23Z</time>
      </trkpt>
      <trkpt lat="45.84206" lon="4.24968">
        <ele>540</ele>
        <time>2018-07-06T18:55:28Z</time>
      </trkpt>
      <trkpt lat="45.84203" lon="4.24979">
        <ele>541</ele>
        <time>2018-07-06T18:55:34Z</time>
      </trkpt>
      <trkpt lat="45.84202" lon="4.24986">
        <ele>541</ele>
        <time>2018-07-06T18:55:39Z</time>
      </trkpt>
      <trkpt lat="45.84201" lon="4.24993">
        <ele>542</ele>
        <time>2018-07-06T18:55:44Z</time>
      </trkpt>
      <trkpt lat="45.84201" lon="4.25002">
        <ele>540</ele>
        <time>2018-07-06T18:55:50Z</time>
      </trkpt>
      <trkpt lat="45.84202" lon="4.25012">
        <ele>539</ele>
        <time>2018-07-06T18:55:56Z</time>
      </trkpt>
      <trkpt lat="45.84201" lon="4.2502">
        <ele>539</ele>
        <time>2018-07-06T18:56:02Z</time>
      </trkpt>
      <trkpt lat="45.84198" lon="4.2503">
        <ele>539</ele>
        <time>2018-07-06T18:56:08Z</time>
      </trkpt>
      <trkpt lat="45.84195" lon="4.25038">
        <ele>539</ele>
        <time>2018-07-06T18:56:14Z</time>
      </trkpt>
      <trkpt lat="45.84196" lon="4.25048">
        <ele>538</ele>
        <time>2018-07-06T18:56:20Z</time>
      </trkpt>
      <trkpt lat="45.84195" lon="4.25058">
        <ele>538</ele>
        <time>2018-07-06T18:56:26Z</time>
      </trkpt>
      <trkpt lat="45.84191" lon="4.25065">
        <ele>539</ele>
        <time>2018-07-06T18:56:32Z</time>
      </trkpt>
      <trkpt lat="45.84189" lon="4.25067">
        <ele>540</ele>
        <time>2018-07-06T18:56:37Z</time>
      </trkpt>
      <trkpt lat="45.84185" lon="4.25072">
        <ele>541</ele>
        <time>2018-07-06T18:56:43Z</time>
      </trkpt>
      <trkpt lat="45.84181" lon="4.25078">
        <ele>542</ele>
        <time>2018-07-06T18:56:49Z</time>
      </trkpt>
      <trkpt lat="45.84176" lon="4.25091">
        <ele>544</ele>
        <time>2018-07-06T18:56:55Z</time>
      </trkpt>
      <trkpt lat="45.84172" lon="4.25097">
        <ele>544</ele>
        <time>2018-07-06T18:57:00Z</time>
      </trkpt>
      <trkpt lat="45.84168" lon="4.25103">
        <ele>543</ele>
        <time>2018-07-06T18:57:06Z</time>
      </trkpt>
      <trkpt lat="45.84166" lon="4.25108">
        <ele>556</ele>
        <time>2018-07-06T18:57:12Z</time>
      </trkpt>
      <trkpt lat="45.84166" lon="4.25116">
        <ele>557</ele>
        <time>2018-07-06T18:57:17Z</time>
      </trkpt>
      <trkpt lat="45.84169" lon="4.25122">
        <ele>542</ele>
        <time>2018-07-06T18:57:22Z</time>
      </trkpt>
      <trkpt lat="45.84173" lon="4.25127">
        <ele>542</ele>
        <time>2018-07-06T18:57:28Z</time>
      </trkpt>
      <trkpt lat="45.84177" lon="4.25132">
        <ele>542</ele>
        <time>2018-07-06T18:57:33Z</time>
      </trkpt>
      <trkpt lat="45.84181" lon="4.25139">
        <ele>543</ele>
        <time>2018-07-06T18:57:39Z</time>
      </trkpt>
      <trkpt lat="45.84185" lon="4.25144">
        <ele>543</ele>
        <time>2018-07-06T18:57:44Z</time>
      </trkpt>
      <trkpt lat="45.84191" lon="4.2515">
        <ele>542</ele>
        <time>2018-07-06T18:57:49Z</time>
      </trkpt>
      <trkpt lat="45.84193" lon="4.25154">
        <ele>542</ele>
        <time>2018-07-06T18:57:55Z</time>
      </trkpt>
      <trkpt lat="45.84195" lon="4.25161">
        <ele>542</ele>
        <time>2018-07-06T18:58:00Z</time>
      </trkpt>
      <trkpt lat="45.84197" lon="4.25166">
        <ele>542</ele>
        <time>2018-07-06T18:58:06Z</time>
      </trkpt>
      <trkpt lat="45.84199" lon="4.25168">
        <ele>549</ele>
        <time>2018-07-06T18:58:11Z</time>
      </trkpt>
      <trkpt lat="45.84199" lon="4.25168">
        <ele>549</ele>
        <time>2018-07-06T18:58:17Z</time>
      </trkpt>
      <trkpt lat="45.84199" lon="4.25168">
        <ele>549</ele>
        <time>2018-07-06T18:58:22Z</time>
      </trkpt>
      <trkpt lat="45.84204" lon="4.2517">
        <ele>548</ele>
        <time>2018-07-06T18:58:27Z</time>
      </trkpt>
      <trkpt lat="45.84205" lon="4.25171">
        <ele>547</ele>
        <time>2018-07-06T18:58:33Z</time>
      </trkpt>
      <trkpt lat="45.84205" lon="4.25171">
        <ele>547</ele>
        <time>2018-07-06T18:58:38Z</time>
      </trkpt>
      <trkpt lat="45.84206" lon="4.25171">
        <ele>547</ele>
        <time>2018-07-06T18:58:44Z</time>
      </trkpt>
      <trkpt lat="45.84208" lon="4.2517">
        <ele>547</ele>
        <time>2018-07-06T18:58:50Z</time>
      </trkpt>
      <trkpt lat="45.84208" lon="4.2517">
        <ele>547</ele>
        <time>2018-07-06T18:58:56Z</time>
      </trkpt>
      <trkpt lat="45.84208" lon="4.2517">
        <ele>547</ele>
        <time>2018-07-06T18:59:02Z</time>
      </trkpt>
      <trkpt lat="45.84214" lon="4.25169">
        <ele>545</ele>
        <time>2018-07-06T18:59:07Z</time>
      </trkpt>
      <trkpt lat="45.84225" lon="4.25167">
        <ele>542</ele>
        <time>2018-07-06T18:59:13Z</time>
      </trkpt>
      <trkpt lat="45.84228" lon="4.25157">
        <ele>535</ele>
        <time>2018-07-06T18:59:19Z</time>
      </trkpt>
      <trkpt lat="45.84227" lon="4.25152">
        <ele>535</ele>
        <time>2018-07-06T18:59:24Z</time>
      </trkpt>
      <trkpt lat="45.84225" lon="4.25149">
        <ele>536</ele>
        <time>2018-07-06T18:59:30Z</time>
      </trkpt>
      <trkpt lat="45.84224" lon="4.25144">
        <ele>536</ele>
        <time>2018-07-06T18:59:35Z</time>
      </trkpt>
      <trkpt lat="45.84224" lon="4.25135">
        <ele>536</ele>
        <time>2018-07-06T18:59:41Z</time>
      </trkpt>
      <trkpt lat="45.84225" lon="4.25128">
        <ele>535</ele>
        <time>2018-07-06T18:59:46Z</time>
      </trkpt>
      <trkpt lat="45.84226" lon="4.25121">
        <ele>534</ele>
        <time>2018-07-06T18:59:52Z</time>
      </trkpt>
      <trkpt lat="45.84226" lon="4.25113">
        <ele>534</ele>
        <time>2018-07-06T18:59:57Z</time>
      </trkpt>
      <trkpt lat="45.84225" lon="4.25105">
        <ele>533</ele>
        <time>2018-07-06T19:00:03Z</time>
      </trkpt>
      <trkpt lat="45.84224" lon="4.25098">
        <ele>532</ele>
        <time>2018-07-06T19:00:08Z</time>
      </trkpt>
      <trkpt lat="45.84224" lon="4.25089">
        <ele>531</ele>
        <time>2018-07-06T19:00:14Z</time>
      </trkpt>
      <trkpt lat="45.84224" lon="4.25082">
        <ele>530</ele>
        <time>2018-07-06T19:00:19Z</time>
      </trkpt>
      <trkpt lat="45.84224" lon="4.25075">
        <ele>531</ele>
        <time>2018-07-06T19:00:24Z</time>
      </trkpt>
      <trkpt lat="45.84226" lon="4.25066">
        <ele>531</ele>
        <time>2018-07-06T19:00:30Z</time>
      </trkpt>
      <trkpt lat="45.84227" lon="4.2506">
        <ele>531</ele>
        <time>2018-07-06T19:00:35Z</time>
      </trkpt>
      <trkpt lat="45.84228" lon="4.25049">
        <ele>532</ele>
        <time>2018-07-06T19:00:41Z</time>
      </trkpt>
      <trkpt lat="45.8423" lon="4.25042">
        <ele>532</ele>
        <time>2018-07-06T19:00:46Z</time>
      </trkpt>
      <trkpt lat="45.84231" lon="4.25033">
        <ele>532</ele>
        <time>2018-07-06T19:00:52Z</time>
      </trkpt>
      <trkpt lat="45.84232" lon="4.25023">
        <ele>531</ele>
        <time>2018-07-06T19:00:58Z</time>
      </trkpt>
      <trkpt lat="45.84234" lon="4.25014">
        <ele>530</ele>
        <time>2018-07-06T19:01:04Z</time>
      </trkpt>
      <trkpt lat="45.84235" lon="4.25011">
        <ele>529</ele>
        <time>2018-07-06T19:01:10Z</time>
      </trkpt>
      <trkpt lat="45.84235" lon="4.25011">
        <ele>529</ele>
        <time>2018-07-06T19:01:16Z</time>
      </trkpt>
      <trkpt lat="45.84235" lon="4.25011">
        <ele>529</ele>
        <time>2018-07-06T19:01:22Z</time>
      </trkpt>
      <trkpt lat="45.84235" lon="4.25004">
        <ele>528</ele>
        <time>2018-07-06T19:01:28Z</time>
      </trkpt>
      <trkpt lat="45.84237" lon="4.25">
        <ele>529</ele>
        <time>2018-07-06T19:01:34Z</time>
      </trkpt>
      <trkpt lat="45.84241" lon="4.24994">
        <ele>528</ele>
        <time>2018-07-06T19:01:40Z</time>
      </trkpt>
      <trkpt lat="45.84241" lon="4.24991">
        <ele>529</ele>
        <time>2018-07-06T19:01:45Z</time>
      </trkpt>
      <trkpt lat="45.84245" lon="4.24984">
        <ele>530</ele>
        <time>2018-07-06T19:01:51Z</time>
      </trkpt>
      <trkpt lat="45.84246" lon="4.24976">
        <ele>532</ele>
        <time>2018-07-06T19:01:56Z</time>
      </trkpt>
      <trkpt lat="45.84247" lon="4.24973">
        <ele>532</ele>
        <time>2018-07-06T19:02:02Z</time>
      </trkpt>
      <trkpt lat="45.84249" lon="4.24965">
        <ele>533</ele>
        <time>2018-07-06T19:02:08Z</time>
      </trkpt>
      <trkpt lat="45.84252" lon="4.24959">
        <ele>519</ele>
        <time>2018-07-06T19:02:13Z</time>
      </trkpt>
      <trkpt lat="45.84254" lon="4.24953">
        <ele>519</ele>
        <time>2018-07-06T19:02:19Z</time>
      </trkpt>
      <trkpt lat="45.84258" lon="4.24948">
        <ele>519</ele>
        <time>2018-07-06T19:02:24Z</time>
      </trkpt>
      <trkpt lat="45.8426" lon="4.24941">
        <ele>520</ele>
        <time>2018-07-06T19:02:30Z</time>
      </trkpt>
      <trkpt lat="45.84261" lon="4.24932">
        <ele>520</ele>
        <time>2018-07-06T19:02:36Z</time>
      </trkpt>
      <trkpt lat="45.84266" lon="4.24926">
        <ele>520</ele>
        <time>2018-07-06T19:02:42Z</time>
      </trkpt>
      <trkpt lat="45.84267" lon="4.2492">
        <ele>521</ele>
        <time>2018-07-06T19:02:47Z</time>
      </trkpt>
      <trkpt lat="45.84266" lon="4.2491">
        <ele>521</ele>
        <time>2018-07-06T19:02:53Z</time>
      </trkpt>
      <trkpt lat="45.84267" lon="4.24901">
        <ele>520</ele>
        <time>2018-07-06T19:02:59Z</time>
      </trkpt>
      <trkpt lat="45.84269" lon="4.24892">
        <ele>519</ele>
        <time>2018-07-06T19:03:05Z</time>
      </trkpt>
      <trkpt lat="45.84273" lon="4.24885">
        <ele>518</ele>
        <time>2018-07-06T19:03:11Z</time>
      </trkpt>
      <trkpt lat="45.84274" lon="4.2488">
        <ele>518</ele>
        <time>2018-07-06T19:03:16Z</time>
      </trkpt>
      <trkpt lat="45.84278" lon="4.24873">
        <ele>518</ele>
        <time>2018-07-06T19:03:22Z</time>
      </trkpt>
      <trkpt lat="45.84281" lon="4.2487">
        <ele>517</ele>
        <time>2018-07-06T19:03:27Z</time>
      </trkpt>
      <trkpt lat="45.84283" lon="4.24865">
        <ele>517</ele>
        <time>2018-07-06T19:03:33Z</time>
      </trkpt>
      <trkpt lat="45.84286" lon="4.24858">
        <ele>517</ele>
        <time>2018-07-06T19:03:38Z</time>
      </trkpt>
      <trkpt lat="45.84288" lon="4.24856">
        <ele>517</ele>
        <time>2018-07-06T19:03:43Z</time>
      </trkpt>
      <trkpt lat="45.84292" lon="4.24855">
        <ele>516</ele>
        <time>2018-07-06T19:03:48Z</time>
      </trkpt>
      <trkpt lat="45.84297" lon="4.24855">
        <ele>515</ele>
        <time>2018-07-06T19:03:54Z</time>
      </trkpt>
      <trkpt lat="45.84301" lon="4.24843">
        <ele>514</ele>
        <time>2018-07-06T19:04:00Z</time>
      </trkpt>
      <trkpt lat="45.84302" lon="4.24837">
        <ele>514</ele>
        <time>2018-07-06T19:04:06Z</time>
      </trkpt>
      <trkpt lat="45.84305" lon="4.24826">
        <ele>512</ele>
        <time>2018-07-06T19:04:12Z</time>
      </trkpt>
      <trkpt lat="45.84307" lon="4.2482">
        <ele>511</ele>
        <time>2018-07-06T19:04:17Z</time>
      </trkpt>
      <trkpt lat="45.84306" lon="4.24821">
        <ele>511</ele>
        <time>2018-07-06T19:04:22Z</time>
      </trkpt>
      <trkpt lat="45.84308" lon="4.24825">
        <ele>511</ele>
        <time>2018-07-06T19:04:28Z</time>
      </trkpt>
      <trkpt lat="45.84309" lon="4.24828">
        <ele>511</ele>
        <time>2018-07-06T19:04:34Z</time>
      </trkpt>
      <trkpt lat="45.84308" lon="4.24829">
        <ele>511</ele>
        <time>2018-07-06T19:04:40Z</time>
      </trkpt>
      <trkpt lat="45.84311" lon="4.24836">
        <ele>512</ele>
        <time>2018-07-06T19:04:46Z</time>
      </trkpt>
      <trkpt lat="45.84314" lon="4.2484">
        <ele>512</ele>
        <time>2018-07-06T19:04:52Z</time>
      </trkpt>
      <trkpt lat="45.84316" lon="4.24843">
        <ele>511</ele>
        <time>2018-07-06T19:04:57Z</time>
      </trkpt>
      <trkpt lat="45.84319" lon="4.24845">
        <ele>511</ele>
        <time>2018-07-06T19:05:03Z</time>
      </trkpt>
      <trkpt lat="45.84321" lon="4.24847">
        <ele>511</ele>
        <time>2018-07-06T19:05:08Z</time>
      </trkpt>
      <trkpt lat="45.84325" lon="4.24847">
        <ele>510</ele>
        <time>2018-07-06T19:05:13Z</time>
      </trkpt>
      <trkpt lat="45.84324" lon="4.24847">
        <ele>510</ele>
        <time>2018-07-06T19:05:19Z</time>
      </trkpt>
      <trkpt lat="45.84322" lon="4.24845">
        <ele>511</ele>
        <time>2018-07-06T19:05:24Z</time>
      </trkpt>
      <trkpt lat="45.84321" lon="4.24845">
        <ele>511</ele>
        <time>2018-07-06T19:05:29Z</time>
      </trkpt>
      <trkpt lat="45.84319" lon="4.24846">
        <ele>511</ele>
        <time>2018-07-06T19:05:34Z</time>
      </trkpt>
      <trkpt lat="45.8432" lon="4.24851">
        <ele>512</ele>
        <time>2018-07-06T19:05:40Z</time>
      </trkpt>
      <trkpt lat="45.8432" lon="4.24853">
        <ele>512</ele>
        <time>2018-07-06T19:05:45Z</time>
      </trkpt>
      <trkpt lat="45.84321" lon="4.24853">
        <ele>512</ele>
        <time>2018-07-06T19:05:51Z</time>
      </trkpt>
      <trkpt lat="45.84323" lon="4.24847">
        <ele>511</ele>
        <time>2018-07-06T19:05:57Z</time>
      </trkpt>
      <trkpt lat="45.84323" lon="4.24846">
        <ele>510</ele>
        <time>2018-07-06T19:06:03Z</time>
      </trkpt>
      <trkpt lat="45.84321" lon="4.24846">
        <ele>511</ele>
        <time>2018-07-06T19:06:09Z</time>
      </trkpt>
      <trkpt lat="45.84322" lon="4.24845">
        <ele>511</ele>
        <time>2018-07-06T19:06:15Z</time>
      </trkpt>
      <trkpt lat="45.84322" lon="4.24846">
        <ele>511</ele>
        <time>2018-07-06T19:06:20Z</time>
      </trkpt>
      <trkpt lat="45.84324" lon="4.24846">
        <ele>510</ele>
        <time>2018-07-06T19:06:26Z</time>
      </trkpt>
      <trkpt lat="45.84324" lon="4.24846">
        <ele>510</ele>
        <time>2018-07-06T19:06:32Z</time>
      </trkpt>
      <trkpt lat="45.84323" lon="4.24846">
        <ele>510</ele>
        <time>2018-07-06T19:06:38Z</time>
      </trkpt>
      <trkpt lat="45.84327" lon="4.24839">
        <ele>508</ele>
        <time>2018-07-06T19:06:43Z</time>
      </trkpt>
      <trkpt lat="45.8433" lon="4.24833">
        <ele>506</ele>
        <time>2018-07-06T19:06:49Z</time>
      </trkpt>
      <trkpt lat="45.8433" lon="4.24833">
        <ele>506</ele>
        <time>2018-07-06T19:06:54Z</time>
      </trkpt>
      <trkpt lat="45.84329" lon="4.24836">
        <ele>507</ele>
        <time>2018-07-06T19:07:00Z</time>
      </trkpt>
      <trkpt lat="45.84327" lon="4.24839">
        <ele>508</ele>
        <time>2018-07-06T19:07:05Z</time>
      </trkpt>
      <trkpt lat="45.84323" lon="4.24837">
        <ele>509</ele>
        <time>2018-07-06T19:07:11Z</time>
      </trkpt>
      <trkpt lat="45.84322" lon="4.24835">
        <ele>509</ele>
        <time>2018-07-06T19:07:17Z</time>
      </trkpt>
      <trkpt lat="45.84325" lon="4.24834">
        <ele>508</ele>
        <time>2018-07-06T19:07:23Z</time>
      </trkpt>
      <trkpt lat="45.84326" lon="4.24835">
        <ele>508</ele>
        <time>2018-07-06T19:07:28Z</time>
      </trkpt>
      <trkpt lat="45.84327" lon="4.24835">
        <ele>508</ele>
        <time>2018-07-06T19:07:33Z</time>
      </trkpt>
      <trkpt lat="45.84326" lon="4.24834">
        <ele>508</ele>
        <time>2018-07-06T19:07:39Z</time>
      </trkpt>
      <trkpt lat="45.84326" lon="4.24834">
        <ele>508</ele>
        <time>2018-07-06T19:07:45Z</time>
      </trkpt>
      <trkpt lat="45.84327" lon="4.24833">
        <ele>507</ele>
        <time>2018-07-06T19:07:50Z</time>
      </trkpt>
      <trkpt lat="45.84326" lon="4.24832">
        <ele>507</ele>
        <time>2018-07-06T19:07:55Z</time>
      </trkpt>
      <trkpt lat="45.84326" lon="4.24832">
        <ele>507</ele>
        <time>2018-07-06T19:08:00Z</time>
      </trkpt>
      <trkpt lat="45.84326" lon="4.24832">
        <ele>507</ele>
        <time>2018-07-06T19:08:06Z</time>
      </trkpt>
      <trkpt lat="45.84326" lon="4.24832">
        <ele>507</ele>
        <time>2018-07-06T19:08:11Z</time>
      </trkpt>
      <trkpt lat="45.84326" lon="4.24832">
        <ele>507</ele>
        <time>2018-07-06T19:08:17Z</time>
      </trkpt>
      <trkpt lat="45.84326" lon="4.24832">
        <ele>507</ele>
        <time>2018-07-06T19:08:22Z</time>
      </trkpt>
      <trkpt lat="45.84326" lon="4.24832">
        <ele>507</ele>
        <time>2018-07-06T19:08:28Z</time>
      </trkpt>
      <trkpt lat="45.84326" lon="4.24832">
        <ele>507</ele>
        <time>2018-07-06T19:08:34Z</time>
      </trkpt>
      <trkpt lat="45.84329" lon="4.24831">
        <ele>507</ele>
        <time>2018-07-06T19:08:39Z</time>
      </trkpt>
      <trkpt lat="45.84329" lon="4.24839">
        <ele>508</ele>
        <time>2018-07-06T19:08:45Z</time>
      </trkpt>
      <trkpt lat="45.84327" lon="4.24843">
        <ele>509</ele>
        <time>2018-07-06T19:08:51Z</time>
      </trkpt>
      <trkpt lat="45.84324" lon="4.24847">
        <ele>510</ele>
        <time>2018-07-06T19:08:57Z</time>
      </trkpt>
      <trkpt lat="45.84324" lon="4.24847">
        <ele>510</ele>
        <time>2018-07-06T19:09:03Z</time>
      </trkpt>
      <trkpt lat="45.84324" lon="4.24847">
        <ele>510</ele>
        <time>2018-07-06T19:09:08Z</time>
      </trkpt>
      <trkpt lat="45.84324" lon="4.24847">
        <ele>510</ele>
        <time>2018-07-06T19:09:13Z</time>
      </trkpt>
      <trkpt lat="45.84324" lon="4.24847">
        <ele>510</ele>
        <time>2018-07-06T19:09:19Z</time>
      </trkpt>
      <trkpt lat="45.84324" lon="4.24848">
        <ele>511</ele>
        <time>2018-07-06T19:09:25Z</time>
      </trkpt>
      <trkpt lat="45.84324" lon="4.24848">
        <ele>511</ele>
        <time>2018-07-06T19:09:30Z</time>
      </trkpt>
      <trkpt lat="45.84324" lon="4.24848">
        <ele>511</ele>
        <time>2018-07-06T19:09:36Z</time>
      </trkpt>
      <trkpt lat="45.84324" lon="4.24849">
        <ele>511</ele>
        <time>2018-07-06T19:09:42Z</time>
      </trkpt>
      <trkpt lat="45.8432" lon="4.24858">
        <ele>512</ele>
        <time>2018-07-06T19:09:48Z</time>
      </trkpt>
      <trkpt lat="45.8432" lon="4.24857">
        <ele>512</ele>
        <time>2018-07-06T19:09:54Z</time>
      </trkpt>
      <trkpt lat="45.84314" lon="4.24867">
        <ele>514</ele>
        <time>2018-07-06T19:09:59Z</time>
      </trkpt>
      <trkpt lat="45.84309" lon="4.24876">
        <ele>514</ele>
        <time>2018-07-06T19:10:05Z</time>
      </trkpt>
      <trkpt lat="45.84309" lon="4.24877">
        <ele>514</ele>
        <time>2018-07-06T19:10:11Z</time>
      </trkpt>
      <trkpt lat="45.84309" lon="4.24877">
        <ele>514</ele>
        <time>2018-07-06T19:10:16Z</time>
      </trkpt>
      <trkpt lat="45.84309" lon="4.24877">
        <ele>514</ele>
        <time>2018-07-06T19:10:22Z</time>
      </trkpt>
      <trkpt lat="45.84309" lon="4.24877">
        <ele>514</ele>
        <time>2018-07-06T19:10:28Z</time>
      </trkpt>
      <trkpt lat="45.84309" lon="4.24877">
        <ele>514</ele>
        <time>2018-07-06T19:10:33Z</time>
      </trkpt>
      <trkpt lat="45.84309" lon="4.24877">
        <ele>514</ele>
        <time>2018-07-06T19:10:38Z</time>
      </trkpt>
      <trkpt lat="45.84309" lon="4.24877">
        <ele>514</ele>
        <time>2018-07-06T19:10:43Z</time>
      </trkpt>
      <trkpt lat="45.84309" lon="4.24877">
        <ele>514</ele>
        <time>2018-07-06T19:10:49Z</time>
      </trkpt>
      <trkpt lat="45.84309" lon="4.24877">
        <ele>514</ele>
        <time>2018-07-06T19:10:55Z</time>
      </trkpt>
      <trkpt lat="45.84309" lon="4.24877">
        <ele>514</ele>
        <time>2018-07-06T19:11:01Z</time>
      </trkpt>
      <trkpt lat="45.84309" lon="4.24877">
        <ele>514</ele>
        <time>2018-07-06T19:11:06Z</time>
      </trkpt>
      <trkpt lat="45.84309" lon="4.24876">
        <ele>514</ele>
        <time>2018-07-06T19:11:11Z</time>
      </trkpt>
      <trkpt lat="45.84309" lon="4.24876">
        <ele>514</ele>
        <time>2018-07-06T19:11:17Z</time>
      </trkpt>
      <trkpt lat="45.84309" lon="4.24875">
        <ele>514</ele>
        <time>2018-07-06T19:11:22Z</time>
      </trkpt>
      <trkpt lat="45.84309" lon="4.24874">
        <ele>514</ele>
        <time>2018-07-06T19:11:27Z</time>
      </trkpt>
      <trkpt lat="45.84309" lon="4.24875">
        <ele>514</ele>
        <time>2018-07-06T19:11:33Z</time>
      </trkpt>
      <trkpt lat="45.84308" lon="4.24876">
        <ele>515</ele>
        <time>2018-07-06T19:11:39Z</time>
      </trkpt>
      <trkpt lat="45.84308" lon="4.24876">
        <ele>515</ele>
        <time>2018-07-06T19:11:45Z</time>
      </trkpt>
      <trkpt lat="45.84308" lon="4.24875">
        <ele>515</ele>
        <time>2018-07-06T19:11:51Z</time>
      </trkpt>
      <trkpt lat="45.84308" lon="4.24876">
        <ele>515</ele>
        <time>2018-07-06T19:11:57Z</time>
      </trkpt>
      <trkpt lat="45.84308" lon="4.24876">
        <ele>515</ele>
        <time>2018-07-06T19:12:03Z</time>
      </trkpt>
      <trkpt lat="45.84308" lon="4.24876">
        <ele>514</ele>
        <time>2018-07-06T19:12:09Z</time>
      </trkpt>
      <trkpt lat="45.8431" lon="4.24876">
        <ele>514</ele>
        <time>2018-07-06T19:12:15Z</time>
      </trkpt>
      <trkpt lat="45.8431" lon="4.24876">
        <ele>514</ele>
        <time>2018-07-06T19:12:21Z</time>
      </trkpt>
      <trkpt lat="45.8431" lon="4.24876">
        <ele>514</ele>
        <time>2018-07-06T19:12:27Z</time>
      </trkpt>
      <trkpt lat="45.84311" lon="4.24874">
        <ele>514</ele>
        <time>2018-07-06T19:12:33Z</time>
      </trkpt>
      <trkpt lat="45.84312" lon="4.24874">
        <ele>514</ele>
        <time>2018-07-06T19:12:39Z</time>
      </trkpt>
      <trkpt lat="45.84316" lon="4.2487">
        <ele>514</ele>
        <time>2018-07-06T19:12:45Z</time>
      </trkpt>
      <trkpt lat="45.84317" lon="4.24871">
        <ele>514</ele>
        <time>2018-07-06T19:12:50Z</time>
      </trkpt>
      <trkpt lat="45.84318" lon="4.2487">
        <ele>513</ele>
        <time>2018-07-06T19:12:55Z</time>
      </trkpt>
      <trkpt lat="45.84318" lon="4.24869">
        <ele>513</ele>
        <time>2018-07-06T19:13:01Z</time>
      </trkpt>
      <trkpt lat="45.84318" lon="4.24869">
        <ele>513</ele>
        <time>2018-07-06T19:13:06Z</time>
      </trkpt>
      <trkpt lat="45.84317" lon="4.24869">
        <ele>514</ele>
        <time>2018-07-06T19:13:12Z</time>
      </trkpt>
      <trkpt lat="45.84315" lon="4.2487">
        <ele>514</ele>
        <time>2018-07-06T19:13:17Z</time>
      </trkpt>
      <trkpt lat="45.84315" lon="4.24871">
        <ele>514</ele>
        <time>2018-07-06T19:13:23Z</time>
      </trkpt>
      <trkpt lat="45.84308" lon="4.24876">
        <ele>515</ele>
        <time>2018-07-06T19:13:28Z</time>
      </trkpt>
      <trkpt lat="45.84304" lon="4.24875">
        <ele>515</ele>
        <time>2018-07-06T19:13:34Z</time>
      </trkpt>
      <trkpt lat="45.84299" lon="4.24869">
        <ele>515</ele>
        <time>2018-07-06T19:13:39Z</time>
      </trkpt>
      <trkpt lat="45.84297" lon="4.24868">
        <ele>516</ele>
        <time>2018-07-06T19:13:44Z</time>
      </trkpt>
      <trkpt lat="45.84297" lon="4.24868">
        <ele>516</ele>
        <time>2018-07-06T19:13:50Z</time>
      </trkpt>
      <trkpt lat="45.84298" lon="4.24868">
        <ele>515</ele>
        <time>2018-07-06T19:13:55Z</time>
      </trkpt>
      <trkpt lat="45.84302" lon="4.24868">
        <ele>515</ele>
        <time>2018-07-06T19:14:00Z</time>
      </trkpt>
      <trkpt lat="45.84302" lon="4.24867">
        <ele>515</ele>
        <time>2018-07-06T19:14:05Z</time>
      </trkpt>
      <trkpt lat="45.84302" lon="4.24867">
        <ele>515</ele>
        <time>2018-07-06T19:14:11Z</time>
      </trkpt>
      <trkpt lat="45.84302" lon="4.24867">
        <ele>515</ele>
        <time>2018-07-06T19:14:17Z</time>
      </trkpt>
      <trkpt lat="45.84302" lon="4.24867">
        <ele>515</ele>
        <time>2018-07-06T19:14:23Z</time>
      </trkpt>
      <trkpt lat="45.84302" lon="4.24867">
        <ele>515</ele>
        <time>2018-07-06T19:14:29Z</time>
      </trkpt>
      <trkpt lat="45.84302" lon="4.24867">
        <ele>515</ele>
        <time>2018-07-06T19:14:34Z</time>
      </trkpt>
      <trkpt lat="45.84302" lon="4.24867">
        <ele>515</ele>
        <time>2018-07-06T19:14:40Z</time>
      </trkpt>
      <trkpt lat="45.84302" lon="4.24867">
        <ele>515</ele>
        <time>2018-07-06T19:14:45Z</time>
      </trkpt>
    </trkseg>
  </trk>
</gpx>